<?xml version="1.0" encoding="UTF-8" standalone="no" ?>
<gpx xmlns="http://www.topografix.com/GPX/1/1" xmlns:xsi="http://www.w3.org/2001/XMLSchema-instance" xsi:schemaLocation="http://www.topografix.com/GPX/1/1 http://www.topografix.com/GPX/1/1/gpx.xsd" version="1.1" creator="VisuGPX - https://www.visugpx.com">
  <metadata>
    <name>Sortie Moto</name>
  </metadata>
  <trk>
    <name><![CDATA[Journal actif: 2020-03-14 11:39]]></name>
    <trkseg>
      <trkpt lat="45.90717" lon="6.15222">
        <ele>449.07</ele>
        <time>2020-03-14T09:39:09Z</time>
      </trkpt>
      <trkpt lat="45.9071" lon="6.15214">
        <ele>449.55</ele>
        <time>2020-03-14T09:39:39Z</time>
      </trkpt>
      <trkpt lat="45.90709" lon="6.15212">
        <ele>449.07</ele>
        <time>2020-03-14T09:39:46Z</time>
      </trkpt>
      <trkpt lat="45.90707" lon="6.15214">
        <ele>448.59</ele>
        <time>2020-03-14T09:39:48Z</time>
      </trkpt>
      <trkpt lat="45.90665" lon="6.15199">
        <ele>447.63</ele>
        <time>2020-03-14T09:39:55Z</time>
      </trkpt>
      <trkpt lat="45.90676" lon="6.1525">
        <ele>448.11</ele>
        <time>2020-03-14T09:40:00Z</time>
      </trkpt>
      <trkpt lat="45.90696" lon="6.15242">
        <ele>449.55</ele>
        <time>2020-03-14T09:40:05Z</time>
      </trkpt>
      <trkpt lat="45.90723" lon="6.15237">
        <ele>451.48</ele>
        <time>2020-03-14T09:40:13Z</time>
      </trkpt>
      <trkpt lat="45.90722" lon="6.1524">
        <ele>451.48</ele>
        <time>2020-03-14T09:40:14Z</time>
      </trkpt>
      <trkpt lat="45.90721" lon="6.15245">
        <ele>451.48</ele>
        <time>2020-03-14T09:40:15Z</time>
      </trkpt>
      <trkpt lat="45.90719" lon="6.15252">
        <ele>451.96</ele>
        <time>2020-03-14T09:40:16Z</time>
      </trkpt>
      <trkpt lat="45.90717" lon="6.15261">
        <ele>451.96</ele>
        <time>2020-03-14T09:40:17Z</time>
      </trkpt>
      <trkpt lat="45.90715" lon="6.15271">
        <ele>452.44</ele>
        <time>2020-03-14T09:40:18Z</time>
      </trkpt>
      <trkpt lat="45.90702" lon="6.1533">
        <ele>452.92</ele>
        <time>2020-03-14T09:40:23Z</time>
      </trkpt>
      <trkpt lat="45.90696" lon="6.15353">
        <ele>452.92</ele>
        <time>2020-03-14T09:40:25Z</time>
      </trkpt>
      <trkpt lat="45.90669" lon="6.15441">
        <ele>452.44</ele>
        <time>2020-03-14T09:40:33Z</time>
      </trkpt>
      <trkpt lat="45.90641" lon="6.15512">
        <ele>452.92</ele>
        <time>2020-03-14T09:40:40Z</time>
      </trkpt>
      <trkpt lat="45.90623" lon="6.15578">
        <ele>453.4</ele>
        <time>2020-03-14T09:40:48Z</time>
      </trkpt>
      <trkpt lat="45.90611" lon="6.15595">
        <ele>452.92</ele>
        <time>2020-03-14T09:40:51Z</time>
      </trkpt>
      <trkpt lat="45.90603" lon="6.15591">
        <ele>452.92</ele>
        <time>2020-03-14T09:40:52Z</time>
      </trkpt>
      <trkpt lat="45.90601" lon="6.15594">
        <ele>452.92</ele>
        <time>2020-03-14T09:40:53Z</time>
      </trkpt>
      <trkpt lat="45.90599" lon="6.15606">
        <ele>452.92</ele>
        <time>2020-03-14T09:40:54Z</time>
      </trkpt>
      <trkpt lat="45.90599" lon="6.15612">
        <ele>452.44</ele>
        <time>2020-03-14T09:40:55Z</time>
      </trkpt>
      <trkpt lat="45.90603" lon="6.15634">
        <ele>452.44</ele>
        <time>2020-03-14T09:40:56Z</time>
      </trkpt>
      <trkpt lat="45.906" lon="6.1565">
        <ele>451.96</ele>
        <time>2020-03-14T09:40:57Z</time>
      </trkpt>
      <trkpt lat="45.90566" lon="6.15794">
        <ele>451.48</ele>
        <time>2020-03-14T09:41:07Z</time>
      </trkpt>
      <trkpt lat="45.90539" lon="6.15855">
        <ele>450.52</ele>
        <time>2020-03-14T09:41:13Z</time>
      </trkpt>
      <trkpt lat="45.90462" lon="6.1594">
        <ele>448.59</ele>
        <time>2020-03-14T09:41:22Z</time>
      </trkpt>
      <trkpt lat="45.90348" lon="6.15998">
        <ele>450.52</ele>
        <time>2020-03-14T09:41:32Z</time>
      </trkpt>
      <trkpt lat="45.90219" lon="6.16052">
        <ele>449.07</ele>
        <time>2020-03-14T09:41:43Z</time>
      </trkpt>
      <trkpt lat="45.90096" lon="6.16123">
        <ele>446.19</ele>
        <time>2020-03-14T09:41:53Z</time>
      </trkpt>
      <trkpt lat="45.89952" lon="6.16179">
        <ele>447.15</ele>
        <time>2020-03-14T09:42:04Z</time>
      </trkpt>
      <trkpt lat="45.8994" lon="6.16184">
        <ele>448.11</ele>
        <time>2020-03-14T09:42:05Z</time>
      </trkpt>
      <trkpt lat="45.89914" lon="6.162">
        <ele>450.03</ele>
        <time>2020-03-14T09:42:07Z</time>
      </trkpt>
      <trkpt lat="45.89839" lon="6.16276">
        <ele>451</ele>
        <time>2020-03-14T09:42:15Z</time>
      </trkpt>
      <trkpt lat="45.89798" lon="6.16327">
        <ele>449.55</ele>
        <time>2020-03-14T09:42:20Z</time>
      </trkpt>
      <trkpt lat="45.89726" lon="6.16417">
        <ele>451</ele>
        <time>2020-03-14T09:42:29Z</time>
      </trkpt>
      <trkpt lat="45.8967" lon="6.16487">
        <ele>454.84</ele>
        <time>2020-03-14T09:42:36Z</time>
      </trkpt>
      <trkpt lat="45.89626" lon="6.16542">
        <ele>457.24</ele>
        <time>2020-03-14T09:42:41Z</time>
      </trkpt>
      <trkpt lat="45.89578" lon="6.166">
        <ele>460.13</ele>
        <time>2020-03-14T09:42:48Z</time>
      </trkpt>
      <trkpt lat="45.89537" lon="6.16646">
        <ele>463.01</ele>
        <time>2020-03-14T09:42:55Z</time>
      </trkpt>
      <trkpt lat="45.89532" lon="6.16651">
        <ele>463.49</ele>
        <time>2020-03-14T09:42:56Z</time>
      </trkpt>
      <trkpt lat="45.89527" lon="6.16658">
        <ele>463.97</ele>
        <time>2020-03-14T09:42:57Z</time>
      </trkpt>
      <trkpt lat="45.89521" lon="6.16665">
        <ele>464.45</ele>
        <time>2020-03-14T09:42:58Z</time>
      </trkpt>
      <trkpt lat="45.89515" lon="6.16673">
        <ele>464.45</ele>
        <time>2020-03-14T09:42:59Z</time>
      </trkpt>
      <trkpt lat="45.8945" lon="6.16761">
        <ele>462.05</ele>
        <time>2020-03-14T09:43:09Z</time>
      </trkpt>
      <trkpt lat="45.89391" lon="6.16825">
        <ele>464.45</ele>
        <time>2020-03-14T09:43:15Z</time>
      </trkpt>
      <trkpt lat="45.89313" lon="6.16869">
        <ele>469.26</ele>
        <time>2020-03-14T09:43:23Z</time>
      </trkpt>
      <trkpt lat="45.89265" lon="6.16891">
        <ele>470.22</ele>
        <time>2020-03-14T09:43:28Z</time>
      </trkpt>
      <trkpt lat="45.89255" lon="6.16898">
        <ele>470.22</ele>
        <time>2020-03-14T09:43:29Z</time>
      </trkpt>
      <trkpt lat="45.89206" lon="6.16932">
        <ele>470.22</ele>
        <time>2020-03-14T09:43:34Z</time>
      </trkpt>
      <trkpt lat="45.89198" lon="6.16942">
        <ele>470.22</ele>
        <time>2020-03-14T09:43:35Z</time>
      </trkpt>
      <trkpt lat="45.89191" lon="6.16952">
        <ele>470.22</ele>
        <time>2020-03-14T09:43:36Z</time>
      </trkpt>
      <trkpt lat="45.89184" lon="6.16966">
        <ele>469.74</ele>
        <time>2020-03-14T09:43:37Z</time>
      </trkpt>
      <trkpt lat="45.89177" lon="6.1698">
        <ele>469.74</ele>
        <time>2020-03-14T09:43:38Z</time>
      </trkpt>
      <trkpt lat="45.89171" lon="6.16996">
        <ele>469.74</ele>
        <time>2020-03-14T09:43:39Z</time>
      </trkpt>
      <trkpt lat="45.89133" lon="6.17082">
        <ele>469.74</ele>
        <time>2020-03-14T09:43:45Z</time>
      </trkpt>
      <trkpt lat="45.89053" lon="6.17185">
        <ele>470.7</ele>
        <time>2020-03-14T09:43:54Z</time>
      </trkpt>
      <trkpt lat="45.88964" lon="6.17289">
        <ele>473.11</ele>
        <time>2020-03-14T09:44:03Z</time>
      </trkpt>
      <trkpt lat="45.88951" lon="6.17299">
        <ele>473.59</ele>
        <time>2020-03-14T09:44:04Z</time>
      </trkpt>
      <trkpt lat="45.88939" lon="6.17309">
        <ele>473.59</ele>
        <time>2020-03-14T09:44:05Z</time>
      </trkpt>
      <trkpt lat="45.88903" lon="6.17335">
        <ele>474.55</ele>
        <time>2020-03-14T09:44:08Z</time>
      </trkpt>
      <trkpt lat="45.88829" lon="6.17392">
        <ele>473.59</ele>
        <time>2020-03-14T09:44:15Z</time>
      </trkpt>
      <trkpt lat="45.8882" lon="6.17397">
        <ele>473.59</ele>
        <time>2020-03-14T09:44:16Z</time>
      </trkpt>
      <trkpt lat="45.88776" lon="6.17409">
        <ele>473.59</ele>
        <time>2020-03-14T09:44:22Z</time>
      </trkpt>
      <trkpt lat="45.88771" lon="6.17411">
        <ele>473.11</ele>
        <time>2020-03-14T09:44:23Z</time>
      </trkpt>
      <trkpt lat="45.8876" lon="6.17402">
        <ele>473.11</ele>
        <time>2020-03-14T09:44:24Z</time>
      </trkpt>
      <trkpt lat="45.88758" lon="6.17401">
        <ele>473.11</ele>
        <time>2020-03-14T09:44:25Z</time>
      </trkpt>
      <trkpt lat="45.8875" lon="6.174">
        <ele>473.59</ele>
        <time>2020-03-14T09:44:26Z</time>
      </trkpt>
      <trkpt lat="45.88743" lon="6.17408">
        <ele>473.59</ele>
        <time>2020-03-14T09:44:27Z</time>
      </trkpt>
      <trkpt lat="45.88733" lon="6.17422">
        <ele>473.59</ele>
        <time>2020-03-14T09:44:28Z</time>
      </trkpt>
      <trkpt lat="45.88723" lon="6.17424">
        <ele>473.59</ele>
        <time>2020-03-14T09:44:29Z</time>
      </trkpt>
      <trkpt lat="45.88712" lon="6.17427">
        <ele>474.07</ele>
        <time>2020-03-14T09:44:30Z</time>
      </trkpt>
      <trkpt lat="45.88635" lon="6.17475">
        <ele>474.55</ele>
        <time>2020-03-14T09:44:39Z</time>
      </trkpt>
      <trkpt lat="45.88543" lon="6.17569">
        <ele>476.95</ele>
        <time>2020-03-14T09:44:52Z</time>
      </trkpt>
      <trkpt lat="45.88524" lon="6.17587">
        <ele>477.91</ele>
        <time>2020-03-14T09:44:55Z</time>
      </trkpt>
      <trkpt lat="45.88507" lon="6.17605">
        <ele>478.87</ele>
        <time>2020-03-14T09:44:59Z</time>
      </trkpt>
      <trkpt lat="45.88492" lon="6.17623">
        <ele>478.87</ele>
        <time>2020-03-14T09:45:01Z</time>
      </trkpt>
      <trkpt lat="45.88489" lon="6.17625">
        <ele>479.35</ele>
        <time>2020-03-14T09:45:02Z</time>
      </trkpt>
      <trkpt lat="45.88481" lon="6.17631">
        <ele>479.35</ele>
        <time>2020-03-14T09:45:03Z</time>
      </trkpt>
      <trkpt lat="45.88449" lon="6.17667">
        <ele>481.76</ele>
        <time>2020-03-14T09:45:10Z</time>
      </trkpt>
      <trkpt lat="45.88446" lon="6.1767">
        <ele>482.72</ele>
        <time>2020-03-14T09:45:12Z</time>
      </trkpt>
      <trkpt lat="45.88429" lon="6.17688">
        <ele>488.01</ele>
        <time>2020-03-14T09:45:27Z</time>
      </trkpt>
      <trkpt lat="45.88394" lon="6.17725">
        <ele>490.41</ele>
        <time>2020-03-14T09:45:39Z</time>
      </trkpt>
      <trkpt lat="45.88391" lon="6.17729">
        <ele>490.89</ele>
        <time>2020-03-14T09:45:40Z</time>
      </trkpt>
      <trkpt lat="45.88388" lon="6.17733">
        <ele>490.89</ele>
        <time>2020-03-14T09:45:41Z</time>
      </trkpt>
      <trkpt lat="45.88384" lon="6.17737">
        <ele>490.89</ele>
        <time>2020-03-14T09:45:42Z</time>
      </trkpt>
      <trkpt lat="45.88359" lon="6.17762">
        <ele>491.85</ele>
        <time>2020-03-14T09:45:47Z</time>
      </trkpt>
      <trkpt lat="45.88327" lon="6.17784">
        <ele>492.81</ele>
        <time>2020-03-14T09:45:52Z</time>
      </trkpt>
      <trkpt lat="45.88287" lon="6.17807">
        <ele>494.26</ele>
        <time>2020-03-14T09:45:58Z</time>
      </trkpt>
      <trkpt lat="45.88279" lon="6.17809">
        <ele>494.74</ele>
        <time>2020-03-14T09:45:59Z</time>
      </trkpt>
      <trkpt lat="45.88272" lon="6.17812">
        <ele>494.74</ele>
        <time>2020-03-14T09:46:00Z</time>
      </trkpt>
      <trkpt lat="45.88246" lon="6.17822">
        <ele>496.18</ele>
        <time>2020-03-14T09:46:03Z</time>
      </trkpt>
      <trkpt lat="45.88221" lon="6.1783">
        <ele>497.14</ele>
        <time>2020-03-14T09:46:06Z</time>
      </trkpt>
      <trkpt lat="45.88214" lon="6.17827">
        <ele>498.1</ele>
        <time>2020-03-14T09:46:07Z</time>
      </trkpt>
      <trkpt lat="45.88205" lon="6.17824">
        <ele>498.1</ele>
        <time>2020-03-14T09:46:08Z</time>
      </trkpt>
      <trkpt lat="45.88196" lon="6.17827">
        <ele>498.1</ele>
        <time>2020-03-14T09:46:09Z</time>
      </trkpt>
      <trkpt lat="45.88187" lon="6.1783">
        <ele>498.1</ele>
        <time>2020-03-14T09:46:10Z</time>
      </trkpt>
      <trkpt lat="45.88177" lon="6.17834">
        <ele>498.1</ele>
        <time>2020-03-14T09:46:11Z</time>
      </trkpt>
      <trkpt lat="45.88161" lon="6.17844">
        <ele>499.06</ele>
        <time>2020-03-14T09:46:13Z</time>
      </trkpt>
      <trkpt lat="45.88152" lon="6.1785">
        <ele>499.06</ele>
        <time>2020-03-14T09:46:14Z</time>
      </trkpt>
      <trkpt lat="45.88097" lon="6.1791">
        <ele>499.06</ele>
        <time>2020-03-14T09:46:22Z</time>
      </trkpt>
      <trkpt lat="45.88066" lon="6.1795">
        <ele>498.1</ele>
        <time>2020-03-14T09:46:27Z</time>
      </trkpt>
      <trkpt lat="45.88057" lon="6.17959">
        <ele>497.62</ele>
        <time>2020-03-14T09:46:28Z</time>
      </trkpt>
      <trkpt lat="45.88048" lon="6.17967">
        <ele>497.14</ele>
        <time>2020-03-14T09:46:29Z</time>
      </trkpt>
      <trkpt lat="45.88021" lon="6.17975">
        <ele>496.18</ele>
        <time>2020-03-14T09:46:32Z</time>
      </trkpt>
      <trkpt lat="45.87932" lon="6.18032">
        <ele>493.77</ele>
        <time>2020-03-14T09:46:41Z</time>
      </trkpt>
      <trkpt lat="45.87849" lon="6.18073">
        <ele>491.37</ele>
        <time>2020-03-14T09:46:51Z</time>
      </trkpt>
      <trkpt lat="45.87838" lon="6.18078">
        <ele>490.89</ele>
        <time>2020-03-14T09:46:53Z</time>
      </trkpt>
      <trkpt lat="45.87769" lon="6.18107">
        <ele>489.93</ele>
        <time>2020-03-14T09:47:01Z</time>
      </trkpt>
      <trkpt lat="45.87628" lon="6.18173">
        <ele>487.05</ele>
        <time>2020-03-14T09:47:15Z</time>
      </trkpt>
      <trkpt lat="45.87588" lon="6.1819">
        <ele>486.08</ele>
        <time>2020-03-14T09:47:20Z</time>
      </trkpt>
      <trkpt lat="45.87582" lon="6.18192">
        <ele>485.6</ele>
        <time>2020-03-14T09:47:21Z</time>
      </trkpt>
      <trkpt lat="45.87522" lon="6.18209">
        <ele>485.12</ele>
        <time>2020-03-14T09:47:28Z</time>
      </trkpt>
      <trkpt lat="45.87485" lon="6.18217">
        <ele>486.08</ele>
        <time>2020-03-14T09:47:35Z</time>
      </trkpt>
      <trkpt lat="45.87485" lon="6.18217">
        <ele>486.08</ele>
        <time>2020-03-14T09:48:03Z</time>
      </trkpt>
      <trkpt lat="45.87481" lon="6.18218">
        <ele>487.05</ele>
        <time>2020-03-14T09:48:21Z</time>
      </trkpt>
      <trkpt lat="45.87474" lon="6.18219">
        <ele>487.05</ele>
        <time>2020-03-14T09:48:22Z</time>
      </trkpt>
      <trkpt lat="45.87402" lon="6.18238">
        <ele>486.56</ele>
        <time>2020-03-14T09:48:28Z</time>
      </trkpt>
      <trkpt lat="45.87253" lon="6.18299">
        <ele>485.6</ele>
        <time>2020-03-14T09:48:41Z</time>
      </trkpt>
      <trkpt lat="45.8724" lon="6.18305">
        <ele>485.6</ele>
        <time>2020-03-14T09:48:42Z</time>
      </trkpt>
      <trkpt lat="45.87105" lon="6.18383">
        <ele>483.68</ele>
        <time>2020-03-14T09:48:51Z</time>
      </trkpt>
      <trkpt lat="45.87016" lon="6.18437">
        <ele>482.24</ele>
        <time>2020-03-14T09:48:58Z</time>
      </trkpt>
      <trkpt lat="45.86949" lon="6.18479">
        <ele>483.2</ele>
        <time>2020-03-14T09:49:04Z</time>
      </trkpt>
      <trkpt lat="45.86792" lon="6.1858">
        <ele>478.87</ele>
        <time>2020-03-14T09:49:15Z</time>
      </trkpt>
      <trkpt lat="45.86676" lon="6.18692">
        <ele>475.03</ele>
        <time>2020-03-14T09:49:23Z</time>
      </trkpt>
      <trkpt lat="45.86572" lon="6.18798">
        <ele>472.14</ele>
        <time>2020-03-14T09:49:31Z</time>
      </trkpt>
      <trkpt lat="45.86465" lon="6.18909">
        <ele>468.78</ele>
        <time>2020-03-14T09:49:42Z</time>
      </trkpt>
      <trkpt lat="45.86384" lon="6.18994">
        <ele>465.9</ele>
        <time>2020-03-14T09:49:51Z</time>
      </trkpt>
      <trkpt lat="45.86364" lon="6.19012">
        <ele>464.93</ele>
        <time>2020-03-14T09:49:53Z</time>
      </trkpt>
      <trkpt lat="45.86355" lon="6.1902">
        <ele>464.93</ele>
        <time>2020-03-14T09:49:54Z</time>
      </trkpt>
      <trkpt lat="45.86339" lon="6.19036">
        <ele>463.97</ele>
        <time>2020-03-14T09:49:56Z</time>
      </trkpt>
      <trkpt lat="45.86269" lon="6.19112">
        <ele>465.42</ele>
        <time>2020-03-14T09:50:05Z</time>
      </trkpt>
      <trkpt lat="45.8626" lon="6.19121">
        <ele>465.42</ele>
        <time>2020-03-14T09:50:06Z</time>
      </trkpt>
      <trkpt lat="45.8625" lon="6.19128">
        <ele>465.9</ele>
        <time>2020-03-14T09:50:07Z</time>
      </trkpt>
      <trkpt lat="45.86161" lon="6.19197">
        <ele>468.78</ele>
        <time>2020-03-14T09:50:16Z</time>
      </trkpt>
      <trkpt lat="45.86152" lon="6.19208">
        <ele>469.26</ele>
        <time>2020-03-14T09:50:17Z</time>
      </trkpt>
      <trkpt lat="45.86128" lon="6.19239">
        <ele>471.66</ele>
        <time>2020-03-14T09:50:20Z</time>
      </trkpt>
      <trkpt lat="45.86116" lon="6.19264">
        <ele>471.66</ele>
        <time>2020-03-14T09:50:22Z</time>
      </trkpt>
      <trkpt lat="45.86097" lon="6.19323">
        <ele>472.14</ele>
        <time>2020-03-14T09:50:26Z</time>
      </trkpt>
      <trkpt lat="45.86093" lon="6.19339">
        <ele>472.14</ele>
        <time>2020-03-14T09:50:27Z</time>
      </trkpt>
      <trkpt lat="45.86093" lon="6.19355">
        <ele>472.63</ele>
        <time>2020-03-14T09:50:28Z</time>
      </trkpt>
      <trkpt lat="45.86094" lon="6.19372">
        <ele>473.11</ele>
        <time>2020-03-14T09:50:29Z</time>
      </trkpt>
      <trkpt lat="45.86095" lon="6.19387">
        <ele>474.07</ele>
        <time>2020-03-14T09:50:30Z</time>
      </trkpt>
      <trkpt lat="45.86094" lon="6.19415">
        <ele>474.55</ele>
        <time>2020-03-14T09:50:32Z</time>
      </trkpt>
      <trkpt lat="45.86093" lon="6.19442">
        <ele>475.99</ele>
        <time>2020-03-14T09:50:34Z</time>
      </trkpt>
      <trkpt lat="45.86086" lon="6.19468">
        <ele>477.43</ele>
        <time>2020-03-14T09:50:36Z</time>
      </trkpt>
      <trkpt lat="45.86076" lon="6.19496">
        <ele>479.35</ele>
        <time>2020-03-14T09:50:39Z</time>
      </trkpt>
      <trkpt lat="45.86069" lon="6.19509">
        <ele>479.84</ele>
        <time>2020-03-14T09:50:40Z</time>
      </trkpt>
      <trkpt lat="45.86042" lon="6.19537">
        <ele>480.8</ele>
        <time>2020-03-14T09:50:44Z</time>
      </trkpt>
      <trkpt lat="45.86035" lon="6.19544">
        <ele>481.28</ele>
        <time>2020-03-14T09:50:45Z</time>
      </trkpt>
      <trkpt lat="45.86028" lon="6.19551">
        <ele>481.76</ele>
        <time>2020-03-14T09:50:46Z</time>
      </trkpt>
      <trkpt lat="45.85971" lon="6.19607">
        <ele>482.72</ele>
        <time>2020-03-14T09:50:55Z</time>
      </trkpt>
      <trkpt lat="45.85964" lon="6.19612">
        <ele>483.2</ele>
        <time>2020-03-14T09:50:56Z</time>
      </trkpt>
      <trkpt lat="45.85957" lon="6.19617">
        <ele>483.2</ele>
        <time>2020-03-14T09:50:57Z</time>
      </trkpt>
      <trkpt lat="45.85949" lon="6.19622">
        <ele>483.2</ele>
        <time>2020-03-14T09:50:58Z</time>
      </trkpt>
      <trkpt lat="45.85942" lon="6.19628">
        <ele>482.72</ele>
        <time>2020-03-14T09:50:59Z</time>
      </trkpt>
      <trkpt lat="45.85909" lon="6.19652">
        <ele>482.72</ele>
        <time>2020-03-14T09:51:04Z</time>
      </trkpt>
      <trkpt lat="45.85876" lon="6.19674">
        <ele>481.28</ele>
        <time>2020-03-14T09:51:09Z</time>
      </trkpt>
      <trkpt lat="45.85868" lon="6.19679">
        <ele>481.28</ele>
        <time>2020-03-14T09:51:10Z</time>
      </trkpt>
      <trkpt lat="45.85861" lon="6.19684">
        <ele>481.28</ele>
        <time>2020-03-14T09:51:11Z</time>
      </trkpt>
      <trkpt lat="45.8584" lon="6.19704">
        <ele>481.28</ele>
        <time>2020-03-14T09:51:14Z</time>
      </trkpt>
      <trkpt lat="45.85828" lon="6.1972">
        <ele>482.24</ele>
        <time>2020-03-14T09:51:16Z</time>
      </trkpt>
      <trkpt lat="45.85823" lon="6.19729">
        <ele>483.2</ele>
        <time>2020-03-14T09:51:17Z</time>
      </trkpt>
      <trkpt lat="45.85807" lon="6.19755">
        <ele>486.08</ele>
        <time>2020-03-14T09:51:20Z</time>
      </trkpt>
      <trkpt lat="45.85793" lon="6.19769">
        <ele>488.01</ele>
        <time>2020-03-14T09:51:22Z</time>
      </trkpt>
      <trkpt lat="45.85785" lon="6.19774">
        <ele>488.97</ele>
        <time>2020-03-14T09:51:23Z</time>
      </trkpt>
      <trkpt lat="45.85777" lon="6.19779">
        <ele>489.93</ele>
        <time>2020-03-14T09:51:24Z</time>
      </trkpt>
      <trkpt lat="45.85768" lon="6.19781">
        <ele>490.89</ele>
        <time>2020-03-14T09:51:25Z</time>
      </trkpt>
      <trkpt lat="45.85758" lon="6.19781">
        <ele>491.37</ele>
        <time>2020-03-14T09:51:26Z</time>
      </trkpt>
      <trkpt lat="45.85749" lon="6.1978">
        <ele>492.33</ele>
        <time>2020-03-14T09:51:27Z</time>
      </trkpt>
      <trkpt lat="45.8574" lon="6.1978">
        <ele>492.81</ele>
        <time>2020-03-14T09:51:28Z</time>
      </trkpt>
      <trkpt lat="45.85732" lon="6.19779">
        <ele>493.29</ele>
        <time>2020-03-14T09:51:29Z</time>
      </trkpt>
      <trkpt lat="45.85724" lon="6.19772">
        <ele>494.26</ele>
        <time>2020-03-14T09:51:30Z</time>
      </trkpt>
      <trkpt lat="45.85717" lon="6.19766">
        <ele>495.22</ele>
        <time>2020-03-14T09:51:31Z</time>
      </trkpt>
      <trkpt lat="45.85709" lon="6.19759">
        <ele>495.7</ele>
        <time>2020-03-14T09:51:32Z</time>
      </trkpt>
      <trkpt lat="45.8569" lon="6.19743">
        <ele>496.66</ele>
        <time>2020-03-14T09:51:34Z</time>
      </trkpt>
      <trkpt lat="45.85679" lon="6.19737">
        <ele>497.14</ele>
        <time>2020-03-14T09:51:35Z</time>
      </trkpt>
      <trkpt lat="45.85667" lon="6.19733">
        <ele>497.62</ele>
        <time>2020-03-14T09:51:36Z</time>
      </trkpt>
      <trkpt lat="45.85653" lon="6.19731">
        <ele>497.62</ele>
        <time>2020-03-14T09:51:37Z</time>
      </trkpt>
      <trkpt lat="45.8564" lon="6.19734">
        <ele>498.1</ele>
        <time>2020-03-14T09:51:38Z</time>
      </trkpt>
      <trkpt lat="45.85626" lon="6.19736">
        <ele>498.1</ele>
        <time>2020-03-14T09:51:39Z</time>
      </trkpt>
      <trkpt lat="45.85612" lon="6.19742">
        <ele>498.58</ele>
        <time>2020-03-14T09:51:40Z</time>
      </trkpt>
      <trkpt lat="45.85601" lon="6.19754">
        <ele>499.06</ele>
        <time>2020-03-14T09:51:41Z</time>
      </trkpt>
      <trkpt lat="45.8559" lon="6.19765">
        <ele>499.54</ele>
        <time>2020-03-14T09:51:42Z</time>
      </trkpt>
      <trkpt lat="45.85579" lon="6.19776">
        <ele>500.02</ele>
        <time>2020-03-14T09:51:43Z</time>
      </trkpt>
      <trkpt lat="45.85491" lon="6.19899">
        <ele>506.75</ele>
        <time>2020-03-14T09:51:52Z</time>
      </trkpt>
      <trkpt lat="45.85431" lon="6.20026">
        <ele>512.04</ele>
        <time>2020-03-14T09:51:58Z</time>
      </trkpt>
      <trkpt lat="45.85367" lon="6.20178">
        <ele>519.25</ele>
        <time>2020-03-14T09:52:06Z</time>
      </trkpt>
      <trkpt lat="45.85337" lon="6.20264">
        <ele>525.5</ele>
        <time>2020-03-14T09:52:11Z</time>
      </trkpt>
      <trkpt lat="45.85313" lon="6.20437">
        <ele>532.71</ele>
        <time>2020-03-14T09:52:22Z</time>
      </trkpt>
      <trkpt lat="45.8531" lon="6.2045">
        <ele>533.19</ele>
        <time>2020-03-14T09:52:23Z</time>
      </trkpt>
      <trkpt lat="45.85307" lon="6.20464">
        <ele>533.19</ele>
        <time>2020-03-14T09:52:24Z</time>
      </trkpt>
      <trkpt lat="45.85304" lon="6.20476">
        <ele>533.67</ele>
        <time>2020-03-14T09:52:25Z</time>
      </trkpt>
      <trkpt lat="45.85298" lon="6.20485">
        <ele>534.15</ele>
        <time>2020-03-14T09:52:26Z</time>
      </trkpt>
      <trkpt lat="45.85292" lon="6.20493">
        <ele>534.63</ele>
        <time>2020-03-14T09:52:27Z</time>
      </trkpt>
      <trkpt lat="45.85285" lon="6.20502">
        <ele>534.63</ele>
        <time>2020-03-14T09:52:28Z</time>
      </trkpt>
      <trkpt lat="45.85278" lon="6.20513">
        <ele>535.11</ele>
        <time>2020-03-14T09:52:29Z</time>
      </trkpt>
      <trkpt lat="45.85187" lon="6.20635">
        <ele>539.44</ele>
        <time>2020-03-14T09:52:39Z</time>
      </trkpt>
      <trkpt lat="45.8506" lon="6.20797">
        <ele>545.2</ele>
        <time>2020-03-14T09:52:49Z</time>
      </trkpt>
      <trkpt lat="45.84956" lon="6.20948">
        <ele>545.69</ele>
        <time>2020-03-14T09:52:55Z</time>
      </trkpt>
      <trkpt lat="45.84879" lon="6.21085">
        <ele>545.69</ele>
        <time>2020-03-14T09:53:02Z</time>
      </trkpt>
      <trkpt lat="45.8477" lon="6.21277">
        <ele>547.61</ele>
        <time>2020-03-14T09:53:13Z</time>
      </trkpt>
      <trkpt lat="45.84691" lon="6.21408">
        <ele>552.9</ele>
        <time>2020-03-14T09:53:23Z</time>
      </trkpt>
      <trkpt lat="45.84682" lon="6.21413">
        <ele>553.38</ele>
        <time>2020-03-14T09:53:24Z</time>
      </trkpt>
      <trkpt lat="45.84673" lon="6.21418">
        <ele>553.38</ele>
        <time>2020-03-14T09:53:25Z</time>
      </trkpt>
      <trkpt lat="45.84663" lon="6.21412">
        <ele>554.34</ele>
        <time>2020-03-14T09:53:26Z</time>
      </trkpt>
      <trkpt lat="45.84654" lon="6.21405">
        <ele>554.82</ele>
        <time>2020-03-14T09:53:27Z</time>
      </trkpt>
      <trkpt lat="45.84645" lon="6.21398">
        <ele>555.3</ele>
        <time>2020-03-14T09:53:28Z</time>
      </trkpt>
      <trkpt lat="45.84626" lon="6.21375">
        <ele>554.34</ele>
        <time>2020-03-14T09:53:30Z</time>
      </trkpt>
      <trkpt lat="45.84538" lon="6.21264">
        <ele>547.13</ele>
        <time>2020-03-14T09:53:38Z</time>
      </trkpt>
      <trkpt lat="45.8453" lon="6.21256">
        <ele>546.17</ele>
        <time>2020-03-14T09:53:39Z</time>
      </trkpt>
      <trkpt lat="45.84521" lon="6.21254">
        <ele>544.72</ele>
        <time>2020-03-14T09:53:40Z</time>
      </trkpt>
      <trkpt lat="45.84513" lon="6.21255">
        <ele>543.76</ele>
        <time>2020-03-14T09:53:41Z</time>
      </trkpt>
      <trkpt lat="45.84507" lon="6.21267">
        <ele>542.8</ele>
        <time>2020-03-14T09:53:42Z</time>
      </trkpt>
      <trkpt lat="45.84499" lon="6.21281">
        <ele>541.36</ele>
        <time>2020-03-14T09:53:43Z</time>
      </trkpt>
      <trkpt lat="45.84489" lon="6.213">
        <ele>539.92</ele>
        <time>2020-03-14T09:53:44Z</time>
      </trkpt>
      <trkpt lat="45.84431" lon="6.21383">
        <ele>532.71</ele>
        <time>2020-03-14T09:53:50Z</time>
      </trkpt>
      <trkpt lat="45.84425" lon="6.21386">
        <ele>531.27</ele>
        <time>2020-03-14T09:53:51Z</time>
      </trkpt>
      <trkpt lat="45.84425" lon="6.21384">
        <ele>529.82</ele>
        <time>2020-03-14T09:53:52Z</time>
      </trkpt>
      <trkpt lat="45.84423" lon="6.21376">
        <ele>528.86</ele>
        <time>2020-03-14T09:53:53Z</time>
      </trkpt>
      <trkpt lat="45.84421" lon="6.21363">
        <ele>528.38</ele>
        <time>2020-03-14T09:53:54Z</time>
      </trkpt>
      <trkpt lat="45.84421" lon="6.21342">
        <ele>527.42</ele>
        <time>2020-03-14T09:53:55Z</time>
      </trkpt>
      <trkpt lat="45.84423" lon="6.21253">
        <ele>523.09</ele>
        <time>2020-03-14T09:53:59Z</time>
      </trkpt>
      <trkpt lat="45.8442" lon="6.21238">
        <ele>522.13</ele>
        <time>2020-03-14T09:54:00Z</time>
      </trkpt>
      <trkpt lat="45.84415" lon="6.2122">
        <ele>521.17</ele>
        <time>2020-03-14T09:54:01Z</time>
      </trkpt>
      <trkpt lat="45.84366" lon="6.211">
        <ele>513.48</ele>
        <time>2020-03-14T09:54:08Z</time>
      </trkpt>
      <trkpt lat="45.84362" lon="6.2109">
        <ele>513</ele>
        <time>2020-03-14T09:54:09Z</time>
      </trkpt>
      <trkpt lat="45.84358" lon="6.21084">
        <ele>512.04</ele>
        <time>2020-03-14T09:54:10Z</time>
      </trkpt>
      <trkpt lat="45.84353" lon="6.21082">
        <ele>511.08</ele>
        <time>2020-03-14T09:54:11Z</time>
      </trkpt>
      <trkpt lat="45.84348" lon="6.21082">
        <ele>509.64</ele>
        <time>2020-03-14T09:54:12Z</time>
      </trkpt>
      <trkpt lat="45.84346" lon="6.2109">
        <ele>509.16</ele>
        <time>2020-03-14T09:54:13Z</time>
      </trkpt>
      <trkpt lat="45.84343" lon="6.21102">
        <ele>508.19</ele>
        <time>2020-03-14T09:54:14Z</time>
      </trkpt>
      <trkpt lat="45.84341" lon="6.21119">
        <ele>507.23</ele>
        <time>2020-03-14T09:54:15Z</time>
      </trkpt>
      <trkpt lat="45.84338" lon="6.21138">
        <ele>505.79</ele>
        <time>2020-03-14T09:54:16Z</time>
      </trkpt>
      <trkpt lat="45.84339" lon="6.21156">
        <ele>504.83</ele>
        <time>2020-03-14T09:54:17Z</time>
      </trkpt>
      <trkpt lat="45.8434" lon="6.21174">
        <ele>503.87</ele>
        <time>2020-03-14T09:54:18Z</time>
      </trkpt>
      <trkpt lat="45.84342" lon="6.21187">
        <ele>502.43</ele>
        <time>2020-03-14T09:54:19Z</time>
      </trkpt>
      <trkpt lat="45.84341" lon="6.21208">
        <ele>501.46</ele>
        <time>2020-03-14T09:54:20Z</time>
      </trkpt>
      <trkpt lat="45.84339" lon="6.21229">
        <ele>500.02</ele>
        <time>2020-03-14T09:54:21Z</time>
      </trkpt>
      <trkpt lat="45.84332" lon="6.21246">
        <ele>499.06</ele>
        <time>2020-03-14T09:54:22Z</time>
      </trkpt>
      <trkpt lat="45.84324" lon="6.21264">
        <ele>497.62</ele>
        <time>2020-03-14T09:54:23Z</time>
      </trkpt>
      <trkpt lat="45.84315" lon="6.21281">
        <ele>496.18</ele>
        <time>2020-03-14T09:54:24Z</time>
      </trkpt>
      <trkpt lat="45.84303" lon="6.21294">
        <ele>494.74</ele>
        <time>2020-03-14T09:54:25Z</time>
      </trkpt>
      <trkpt lat="45.84293" lon="6.21307">
        <ele>493.77</ele>
        <time>2020-03-14T09:54:26Z</time>
      </trkpt>
      <trkpt lat="45.84284" lon="6.21322">
        <ele>492.81</ele>
        <time>2020-03-14T09:54:27Z</time>
      </trkpt>
      <trkpt lat="45.84278" lon="6.21336">
        <ele>491.85</ele>
        <time>2020-03-14T09:54:28Z</time>
      </trkpt>
      <trkpt lat="45.84272" lon="6.21351">
        <ele>491.85</ele>
        <time>2020-03-14T09:54:29Z</time>
      </trkpt>
      <trkpt lat="45.84265" lon="6.21366">
        <ele>491.37</ele>
        <time>2020-03-14T09:54:30Z</time>
      </trkpt>
      <trkpt lat="45.84225" lon="6.21476">
        <ele>486.56</ele>
        <time>2020-03-14T09:54:37Z</time>
      </trkpt>
      <trkpt lat="45.84215" lon="6.21488">
        <ele>486.08</ele>
        <time>2020-03-14T09:54:38Z</time>
      </trkpt>
      <trkpt lat="45.84204" lon="6.215">
        <ele>485.6</ele>
        <time>2020-03-14T09:54:39Z</time>
      </trkpt>
      <trkpt lat="45.84192" lon="6.2151">
        <ele>485.6</ele>
        <time>2020-03-14T09:54:40Z</time>
      </trkpt>
      <trkpt lat="45.8418" lon="6.21521">
        <ele>485.6</ele>
        <time>2020-03-14T09:54:41Z</time>
      </trkpt>
      <trkpt lat="45.84075" lon="6.21608">
        <ele>484.16</ele>
        <time>2020-03-14T09:54:50Z</time>
      </trkpt>
      <trkpt lat="45.84001" lon="6.21662">
        <ele>477.91</ele>
        <time>2020-03-14T09:54:57Z</time>
      </trkpt>
      <trkpt lat="45.83991" lon="6.21665">
        <ele>476.95</ele>
        <time>2020-03-14T09:54:58Z</time>
      </trkpt>
      <trkpt lat="45.83983" lon="6.21668">
        <ele>476.47</ele>
        <time>2020-03-14T09:54:59Z</time>
      </trkpt>
      <trkpt lat="45.83968" lon="6.21658">
        <ele>475.51</ele>
        <time>2020-03-14T09:55:01Z</time>
      </trkpt>
      <trkpt lat="45.8396" lon="6.21662">
        <ele>474.55</ele>
        <time>2020-03-14T09:55:02Z</time>
      </trkpt>
      <trkpt lat="45.83958" lon="6.21665">
        <ele>474.07</ele>
        <time>2020-03-14T09:55:03Z</time>
      </trkpt>
      <trkpt lat="45.8395" lon="6.21686">
        <ele>473.11</ele>
        <time>2020-03-14T09:55:04Z</time>
      </trkpt>
      <trkpt lat="45.83939" lon="6.21692">
        <ele>472.63</ele>
        <time>2020-03-14T09:55:05Z</time>
      </trkpt>
      <trkpt lat="45.83927" lon="6.21694">
        <ele>471.66</ele>
        <time>2020-03-14T09:55:06Z</time>
      </trkpt>
      <trkpt lat="45.83799" lon="6.21707">
        <ele>462.05</ele>
        <time>2020-03-14T09:55:17Z</time>
      </trkpt>
      <trkpt lat="45.83743" lon="6.21703">
        <ele>455.8</ele>
        <time>2020-03-14T09:55:24Z</time>
      </trkpt>
      <trkpt lat="45.83743" lon="6.21703">
        <ele>455.32</ele>
        <time>2020-03-14T09:55:38Z</time>
      </trkpt>
      <trkpt lat="45.83737" lon="6.21703">
        <ele>453.4</ele>
        <time>2020-03-14T09:55:59Z</time>
      </trkpt>
      <trkpt lat="45.8373" lon="6.21702">
        <ele>452.92</ele>
        <time>2020-03-14T09:56:00Z</time>
      </trkpt>
      <trkpt lat="45.83693" lon="6.21692">
        <ele>450.03</ele>
        <time>2020-03-14T09:56:04Z</time>
      </trkpt>
      <trkpt lat="45.836" lon="6.21702">
        <ele>446.19</ele>
        <time>2020-03-14T09:56:12Z</time>
      </trkpt>
      <trkpt lat="45.83449" lon="6.21712">
        <ele>446.67</ele>
        <time>2020-03-14T09:56:23Z</time>
      </trkpt>
      <trkpt lat="45.83364" lon="6.21745">
        <ele>447.15</ele>
        <time>2020-03-14T09:56:27Z</time>
      </trkpt>
      <trkpt lat="45.83347" lon="6.21758">
        <ele>447.15</ele>
        <time>2020-03-14T09:56:28Z</time>
      </trkpt>
      <trkpt lat="45.83333" lon="6.21777">
        <ele>447.15</ele>
        <time>2020-03-14T09:56:29Z</time>
      </trkpt>
      <trkpt lat="45.83317" lon="6.21798">
        <ele>447.15</ele>
        <time>2020-03-14T09:56:30Z</time>
      </trkpt>
      <trkpt lat="45.83305" lon="6.21825">
        <ele>446.67</ele>
        <time>2020-03-14T09:56:31Z</time>
      </trkpt>
      <trkpt lat="45.83292" lon="6.21852">
        <ele>446.19</ele>
        <time>2020-03-14T09:56:32Z</time>
      </trkpt>
      <trkpt lat="45.83279" lon="6.21879">
        <ele>446.19</ele>
        <time>2020-03-14T09:56:33Z</time>
      </trkpt>
      <trkpt lat="45.83262" lon="6.21903">
        <ele>445.71</ele>
        <time>2020-03-14T09:56:34Z</time>
      </trkpt>
      <trkpt lat="45.83244" lon="6.21926">
        <ele>445.23</ele>
        <time>2020-03-14T09:56:35Z</time>
      </trkpt>
      <trkpt lat="45.83226" lon="6.21948">
        <ele>444.75</ele>
        <time>2020-03-14T09:56:36Z</time>
      </trkpt>
      <trkpt lat="45.83206" lon="6.21966">
        <ele>445.23</ele>
        <time>2020-03-14T09:56:37Z</time>
      </trkpt>
      <trkpt lat="45.83185" lon="6.21983">
        <ele>445.23</ele>
        <time>2020-03-14T09:56:38Z</time>
      </trkpt>
      <trkpt lat="45.83162" lon="6.21997">
        <ele>445.71</ele>
        <time>2020-03-14T09:56:39Z</time>
      </trkpt>
      <trkpt lat="45.83139" lon="6.22008">
        <ele>445.71</ele>
        <time>2020-03-14T09:56:40Z</time>
      </trkpt>
      <trkpt lat="45.82997" lon="6.22066">
        <ele>450.03</ele>
        <time>2020-03-14T09:56:47Z</time>
      </trkpt>
      <trkpt lat="45.82875" lon="6.22098">
        <ele>451.96</ele>
        <time>2020-03-14T09:56:54Z</time>
      </trkpt>
      <trkpt lat="45.82718" lon="6.22131">
        <ele>452.92</ele>
        <time>2020-03-14T09:57:03Z</time>
      </trkpt>
      <trkpt lat="45.82691" lon="6.22142">
        <ele>452.44</ele>
        <time>2020-03-14T09:57:05Z</time>
      </trkpt>
      <trkpt lat="45.82605" lon="6.22218">
        <ele>451.96</ele>
        <time>2020-03-14T09:57:13Z</time>
      </trkpt>
      <trkpt lat="45.8255" lon="6.22307">
        <ele>451.48</ele>
        <time>2020-03-14T09:57:19Z</time>
      </trkpt>
      <trkpt lat="45.82434" lon="6.22507">
        <ele>449.07</ele>
        <time>2020-03-14T09:57:30Z</time>
      </trkpt>
      <trkpt lat="45.82333" lon="6.22672">
        <ele>448.59</ele>
        <time>2020-03-14T09:57:40Z</time>
      </trkpt>
      <trkpt lat="45.8232" lon="6.22685">
        <ele>448.59</ele>
        <time>2020-03-14T09:57:41Z</time>
      </trkpt>
      <trkpt lat="45.82304" lon="6.22693">
        <ele>448.59</ele>
        <time>2020-03-14T09:57:42Z</time>
      </trkpt>
      <trkpt lat="45.82288" lon="6.22702">
        <ele>448.59</ele>
        <time>2020-03-14T09:57:43Z</time>
      </trkpt>
      <trkpt lat="45.82272" lon="6.22703">
        <ele>448.11</ele>
        <time>2020-03-14T09:57:44Z</time>
      </trkpt>
      <trkpt lat="45.82256" lon="6.22705">
        <ele>448.11</ele>
        <time>2020-03-14T09:57:45Z</time>
      </trkpt>
      <trkpt lat="45.82227" lon="6.22707">
        <ele>447.15</ele>
        <time>2020-03-14T09:57:47Z</time>
      </trkpt>
      <trkpt lat="45.82211" lon="6.22704">
        <ele>447.15</ele>
        <time>2020-03-14T09:57:48Z</time>
      </trkpt>
      <trkpt lat="45.82171" lon="6.22681">
        <ele>447.15</ele>
        <time>2020-03-14T09:57:51Z</time>
      </trkpt>
      <trkpt lat="45.8216" lon="6.22676">
        <ele>447.15</ele>
        <time>2020-03-14T09:57:52Z</time>
      </trkpt>
      <trkpt lat="45.82147" lon="6.22679">
        <ele>446.67</ele>
        <time>2020-03-14T09:57:53Z</time>
      </trkpt>
      <trkpt lat="45.82134" lon="6.22689">
        <ele>446.19</ele>
        <time>2020-03-14T09:57:54Z</time>
      </trkpt>
      <trkpt lat="45.8212" lon="6.227">
        <ele>446.19</ele>
        <time>2020-03-14T09:57:55Z</time>
      </trkpt>
      <trkpt lat="45.82106" lon="6.22712">
        <ele>446.19</ele>
        <time>2020-03-14T09:57:56Z</time>
      </trkpt>
      <trkpt lat="45.82082" lon="6.22737">
        <ele>446.19</ele>
        <time>2020-03-14T09:57:58Z</time>
      </trkpt>
      <trkpt lat="45.8207" lon="6.22752">
        <ele>446.67</ele>
        <time>2020-03-14T09:57:59Z</time>
      </trkpt>
      <trkpt lat="45.82028" lon="6.22801">
        <ele>446.19</ele>
        <time>2020-03-14T09:58:02Z</time>
      </trkpt>
      <trkpt lat="45.82012" lon="6.22817">
        <ele>446.19</ele>
        <time>2020-03-14T09:58:03Z</time>
      </trkpt>
      <trkpt lat="45.8191" lon="6.22875">
        <ele>446.19</ele>
        <time>2020-03-14T09:58:09Z</time>
      </trkpt>
      <trkpt lat="45.81843" lon="6.22893">
        <ele>447.15</ele>
        <time>2020-03-14T09:58:13Z</time>
      </trkpt>
      <trkpt lat="45.818" lon="6.22917">
        <ele>447.63</ele>
        <time>2020-03-14T09:58:16Z</time>
      </trkpt>
      <trkpt lat="45.81787" lon="6.22923">
        <ele>447.63</ele>
        <time>2020-03-14T09:58:17Z</time>
      </trkpt>
      <trkpt lat="45.81771" lon="6.22923">
        <ele>448.11</ele>
        <time>2020-03-14T09:58:18Z</time>
      </trkpt>
      <trkpt lat="45.81754" lon="6.22921">
        <ele>448.11</ele>
        <time>2020-03-14T09:58:19Z</time>
      </trkpt>
      <trkpt lat="45.81738" lon="6.22913">
        <ele>448.11</ele>
        <time>2020-03-14T09:58:20Z</time>
      </trkpt>
      <trkpt lat="45.81621" lon="6.22903">
        <ele>448.59</ele>
        <time>2020-03-14T09:58:27Z</time>
      </trkpt>
      <trkpt lat="45.81607" lon="6.22909">
        <ele>448.59</ele>
        <time>2020-03-14T09:58:28Z</time>
      </trkpt>
      <trkpt lat="45.81592" lon="6.22914">
        <ele>448.59</ele>
        <time>2020-03-14T09:58:29Z</time>
      </trkpt>
      <trkpt lat="45.81576" lon="6.22922">
        <ele>448.59</ele>
        <time>2020-03-14T09:58:30Z</time>
      </trkpt>
      <trkpt lat="45.81562" lon="6.22935">
        <ele>448.11</ele>
        <time>2020-03-14T09:58:31Z</time>
      </trkpt>
      <trkpt lat="45.81546" lon="6.22948">
        <ele>448.11</ele>
        <time>2020-03-14T09:58:32Z</time>
      </trkpt>
      <trkpt lat="45.81529" lon="6.22959">
        <ele>448.11</ele>
        <time>2020-03-14T09:58:33Z</time>
      </trkpt>
      <trkpt lat="45.81513" lon="6.2297">
        <ele>447.63</ele>
        <time>2020-03-14T09:58:34Z</time>
      </trkpt>
      <trkpt lat="45.81462" lon="6.23004">
        <ele>447.15</ele>
        <time>2020-03-14T09:58:37Z</time>
      </trkpt>
      <trkpt lat="45.81447" lon="6.23018">
        <ele>447.15</ele>
        <time>2020-03-14T09:58:38Z</time>
      </trkpt>
      <trkpt lat="45.81403" lon="6.23061">
        <ele>447.15</ele>
        <time>2020-03-14T09:58:41Z</time>
      </trkpt>
      <trkpt lat="45.81388" lon="6.23071">
        <ele>447.15</ele>
        <time>2020-03-14T09:58:42Z</time>
      </trkpt>
      <trkpt lat="45.81372" lon="6.23075">
        <ele>447.63</ele>
        <time>2020-03-14T09:58:43Z</time>
      </trkpt>
      <trkpt lat="45.81355" lon="6.23071">
        <ele>447.63</ele>
        <time>2020-03-14T09:58:44Z</time>
      </trkpt>
      <trkpt lat="45.81338" lon="6.23067">
        <ele>448.11</ele>
        <time>2020-03-14T09:58:45Z</time>
      </trkpt>
      <trkpt lat="45.81322" lon="6.23063">
        <ele>448.11</ele>
        <time>2020-03-14T09:58:46Z</time>
      </trkpt>
      <trkpt lat="45.81304" lon="6.23065">
        <ele>448.11</ele>
        <time>2020-03-14T09:58:47Z</time>
      </trkpt>
      <trkpt lat="45.81242" lon="6.23079">
        <ele>447.15</ele>
        <time>2020-03-14T09:58:50Z</time>
      </trkpt>
      <trkpt lat="45.81145" lon="6.23119">
        <ele>446.19</ele>
        <time>2020-03-14T09:58:55Z</time>
      </trkpt>
      <trkpt lat="45.81126" lon="6.23122">
        <ele>446.67</ele>
        <time>2020-03-14T09:58:56Z</time>
      </trkpt>
      <trkpt lat="45.81068" lon="6.23133">
        <ele>447.15</ele>
        <time>2020-03-14T09:58:59Z</time>
      </trkpt>
      <trkpt lat="45.81049" lon="6.23136">
        <ele>447.15</ele>
        <time>2020-03-14T09:59:00Z</time>
      </trkpt>
      <trkpt lat="45.80934" lon="6.23169">
        <ele>445.71</ele>
        <time>2020-03-14T09:59:06Z</time>
      </trkpt>
      <trkpt lat="45.80861" lon="6.23172">
        <ele>445.23</ele>
        <time>2020-03-14T09:59:10Z</time>
      </trkpt>
      <trkpt lat="45.80847" lon="6.23181">
        <ele>445.23</ele>
        <time>2020-03-14T09:59:11Z</time>
      </trkpt>
      <trkpt lat="45.80817" lon="6.23201">
        <ele>445.23</ele>
        <time>2020-03-14T09:59:13Z</time>
      </trkpt>
      <trkpt lat="45.80798" lon="6.23204">
        <ele>445.23</ele>
        <time>2020-03-14T09:59:14Z</time>
      </trkpt>
      <trkpt lat="45.80725" lon="6.23216">
        <ele>445.71</ele>
        <time>2020-03-14T09:59:18Z</time>
      </trkpt>
      <trkpt lat="45.80709" lon="6.23214">
        <ele>445.71</ele>
        <time>2020-03-14T09:59:19Z</time>
      </trkpt>
      <trkpt lat="45.80693" lon="6.23212">
        <ele>445.71</ele>
        <time>2020-03-14T09:59:20Z</time>
      </trkpt>
      <trkpt lat="45.80678" lon="6.23209">
        <ele>445.71</ele>
        <time>2020-03-14T09:59:21Z</time>
      </trkpt>
      <trkpt lat="45.80663" lon="6.23211">
        <ele>445.71</ele>
        <time>2020-03-14T09:59:22Z</time>
      </trkpt>
      <trkpt lat="45.80647" lon="6.23215">
        <ele>445.71</ele>
        <time>2020-03-14T09:59:23Z</time>
      </trkpt>
      <trkpt lat="45.8063" lon="6.2322">
        <ele>445.71</ele>
        <time>2020-03-14T09:59:24Z</time>
      </trkpt>
      <trkpt lat="45.80601" lon="6.23227">
        <ele>445.71</ele>
        <time>2020-03-14T09:59:26Z</time>
      </trkpt>
      <trkpt lat="45.80587" lon="6.23223">
        <ele>446.19</ele>
        <time>2020-03-14T09:59:27Z</time>
      </trkpt>
      <trkpt lat="45.80573" lon="6.23216">
        <ele>446.19</ele>
        <time>2020-03-14T09:59:28Z</time>
      </trkpt>
      <trkpt lat="45.80524" lon="6.23184">
        <ele>445.71</ele>
        <time>2020-03-14T09:59:31Z</time>
      </trkpt>
      <trkpt lat="45.80475" lon="6.23159">
        <ele>445.71</ele>
        <time>2020-03-14T09:59:34Z</time>
      </trkpt>
      <trkpt lat="45.80457" lon="6.23149">
        <ele>445.71</ele>
        <time>2020-03-14T09:59:35Z</time>
      </trkpt>
      <trkpt lat="45.80312" lon="6.23022">
        <ele>446.67</ele>
        <time>2020-03-14T09:59:44Z</time>
      </trkpt>
      <trkpt lat="45.80178" lon="6.22939">
        <ele>447.15</ele>
        <time>2020-03-14T09:59:53Z</time>
      </trkpt>
      <trkpt lat="45.80125" lon="6.22915">
        <ele>447.15</ele>
        <time>2020-03-14T09:59:57Z</time>
      </trkpt>
      <trkpt lat="45.80113" lon="6.22913">
        <ele>447.15</ele>
        <time>2020-03-14T09:59:58Z</time>
      </trkpt>
      <trkpt lat="45.80101" lon="6.22912">
        <ele>447.15</ele>
        <time>2020-03-14T09:59:59Z</time>
      </trkpt>
      <trkpt lat="45.80032" lon="6.22919">
        <ele>447.15</ele>
        <time>2020-03-14T10:00:04Z</time>
      </trkpt>
      <trkpt lat="45.80019" lon="6.22924">
        <ele>447.15</ele>
        <time>2020-03-14T10:00:05Z</time>
      </trkpt>
      <trkpt lat="45.80006" lon="6.22934">
        <ele>446.67</ele>
        <time>2020-03-14T10:00:06Z</time>
      </trkpt>
      <trkpt lat="45.79992" lon="6.22944">
        <ele>446.67</ele>
        <time>2020-03-14T10:00:07Z</time>
      </trkpt>
      <trkpt lat="45.7998" lon="6.22958">
        <ele>446.67</ele>
        <time>2020-03-14T10:00:08Z</time>
      </trkpt>
      <trkpt lat="45.79967" lon="6.22972">
        <ele>446.19</ele>
        <time>2020-03-14T10:00:09Z</time>
      </trkpt>
      <trkpt lat="45.79932" lon="6.23014">
        <ele>446.19</ele>
        <time>2020-03-14T10:00:12Z</time>
      </trkpt>
      <trkpt lat="45.7988" lon="6.23081">
        <ele>448.11</ele>
        <time>2020-03-14T10:00:17Z</time>
      </trkpt>
      <trkpt lat="45.79867" lon="6.23096">
        <ele>448.59</ele>
        <time>2020-03-14T10:00:18Z</time>
      </trkpt>
      <trkpt lat="45.79852" lon="6.23111">
        <ele>448.59</ele>
        <time>2020-03-14T10:00:19Z</time>
      </trkpt>
      <trkpt lat="45.79835" lon="6.23124">
        <ele>449.07</ele>
        <time>2020-03-14T10:00:20Z</time>
      </trkpt>
      <trkpt lat="45.79815" lon="6.23133">
        <ele>449.07</ele>
        <time>2020-03-14T10:00:21Z</time>
      </trkpt>
      <trkpt lat="45.79793" lon="6.23141">
        <ele>449.07</ele>
        <time>2020-03-14T10:00:22Z</time>
      </trkpt>
      <trkpt lat="45.79766" lon="6.23146">
        <ele>449.55</ele>
        <time>2020-03-14T10:00:23Z</time>
      </trkpt>
      <trkpt lat="45.7962" lon="6.23175">
        <ele>450.03</ele>
        <time>2020-03-14T10:00:27Z</time>
      </trkpt>
      <trkpt lat="45.79397" lon="6.23218">
        <ele>451.96</ele>
        <time>2020-03-14T10:00:33Z</time>
      </trkpt>
      <trkpt lat="45.79303" lon="6.23231">
        <ele>453.4</ele>
        <time>2020-03-14T10:00:37Z</time>
      </trkpt>
      <trkpt lat="45.79284" lon="6.23227">
        <ele>453.88</ele>
        <time>2020-03-14T10:00:38Z</time>
      </trkpt>
      <trkpt lat="45.79265" lon="6.23221">
        <ele>453.88</ele>
        <time>2020-03-14T10:00:39Z</time>
      </trkpt>
      <trkpt lat="45.79248" lon="6.23208">
        <ele>453.88</ele>
        <time>2020-03-14T10:00:40Z</time>
      </trkpt>
      <trkpt lat="45.7923" lon="6.23195">
        <ele>454.36</ele>
        <time>2020-03-14T10:00:41Z</time>
      </trkpt>
      <trkpt lat="45.79214" lon="6.2318">
        <ele>454.84</ele>
        <time>2020-03-14T10:00:42Z</time>
      </trkpt>
      <trkpt lat="45.79199" lon="6.23166">
        <ele>454.84</ele>
        <time>2020-03-14T10:00:43Z</time>
      </trkpt>
      <trkpt lat="45.79183" lon="6.23158">
        <ele>455.32</ele>
        <time>2020-03-14T10:00:44Z</time>
      </trkpt>
      <trkpt lat="45.79166" lon="6.23152">
        <ele>455.8</ele>
        <time>2020-03-14T10:00:45Z</time>
      </trkpt>
      <trkpt lat="45.79149" lon="6.23153">
        <ele>456.28</ele>
        <time>2020-03-14T10:00:46Z</time>
      </trkpt>
      <trkpt lat="45.79131" lon="6.23155">
        <ele>456.28</ele>
        <time>2020-03-14T10:00:47Z</time>
      </trkpt>
      <trkpt lat="45.7899" lon="6.23175">
        <ele>457.72</ele>
        <time>2020-03-14T10:00:56Z</time>
      </trkpt>
      <trkpt lat="45.78953" lon="6.2318">
        <ele>457.72</ele>
        <time>2020-03-14T10:00:59Z</time>
      </trkpt>
      <trkpt lat="45.78942" lon="6.23179">
        <ele>458.21</ele>
        <time>2020-03-14T10:01:00Z</time>
      </trkpt>
      <trkpt lat="45.78832" lon="6.23146">
        <ele>457.72</ele>
        <time>2020-03-14T10:01:09Z</time>
      </trkpt>
      <trkpt lat="45.78667" lon="6.23092">
        <ele>456.28</ele>
        <time>2020-03-14T10:01:18Z</time>
      </trkpt>
      <trkpt lat="45.78533" lon="6.23059">
        <ele>458.21</ele>
        <time>2020-03-14T10:01:26Z</time>
      </trkpt>
      <trkpt lat="45.78446" lon="6.23071">
        <ele>459.17</ele>
        <time>2020-03-14T10:01:33Z</time>
      </trkpt>
      <trkpt lat="45.78386" lon="6.23078">
        <ele>459.17</ele>
        <time>2020-03-14T10:01:37Z</time>
      </trkpt>
      <trkpt lat="45.78371" lon="6.23077">
        <ele>458.69</ele>
        <time>2020-03-14T10:01:38Z</time>
      </trkpt>
      <trkpt lat="45.78339" lon="6.23073">
        <ele>458.21</ele>
        <time>2020-03-14T10:01:40Z</time>
      </trkpt>
      <trkpt lat="45.78324" lon="6.23066">
        <ele>457.72</ele>
        <time>2020-03-14T10:01:41Z</time>
      </trkpt>
      <trkpt lat="45.78309" lon="6.23057">
        <ele>457.24</ele>
        <time>2020-03-14T10:01:42Z</time>
      </trkpt>
      <trkpt lat="45.78295" lon="6.23049">
        <ele>457.24</ele>
        <time>2020-03-14T10:01:43Z</time>
      </trkpt>
      <trkpt lat="45.78283" lon="6.23037">
        <ele>457.24</ele>
        <time>2020-03-14T10:01:44Z</time>
      </trkpt>
      <trkpt lat="45.78271" lon="6.23024">
        <ele>457.72</ele>
        <time>2020-03-14T10:01:45Z</time>
      </trkpt>
      <trkpt lat="45.78163" lon="6.2289">
        <ele>463.97</ele>
        <time>2020-03-14T10:01:55Z</time>
      </trkpt>
      <trkpt lat="45.78157" lon="6.22881">
        <ele>464.45</ele>
        <time>2020-03-14T10:01:56Z</time>
      </trkpt>
      <trkpt lat="45.78152" lon="6.22874">
        <ele>464.45</ele>
        <time>2020-03-14T10:01:57Z</time>
      </trkpt>
      <trkpt lat="45.78151" lon="6.22854">
        <ele>464.45</ele>
        <time>2020-03-14T10:01:58Z</time>
      </trkpt>
      <trkpt lat="45.78157" lon="6.22842">
        <ele>464.45</ele>
        <time>2020-03-14T10:01:59Z</time>
      </trkpt>
      <trkpt lat="45.78164" lon="6.22831">
        <ele>464.45</ele>
        <time>2020-03-14T10:02:00Z</time>
      </trkpt>
      <trkpt lat="45.78171" lon="6.22818">
        <ele>464.93</ele>
        <time>2020-03-14T10:02:01Z</time>
      </trkpt>
      <trkpt lat="45.78179" lon="6.22806">
        <ele>464.45</ele>
        <time>2020-03-14T10:02:02Z</time>
      </trkpt>
      <trkpt lat="45.78259" lon="6.22685">
        <ele>464.93</ele>
        <time>2020-03-14T10:02:11Z</time>
      </trkpt>
      <trkpt lat="45.78362" lon="6.22551">
        <ele>465.42</ele>
        <time>2020-03-14T10:02:21Z</time>
      </trkpt>
      <trkpt lat="45.78453" lon="6.2243">
        <ele>464.93</ele>
        <time>2020-03-14T10:02:29Z</time>
      </trkpt>
      <trkpt lat="45.78468" lon="6.22409">
        <ele>464.45</ele>
        <time>2020-03-14T10:02:30Z</time>
      </trkpt>
      <trkpt lat="45.78484" lon="6.22389">
        <ele>463.97</ele>
        <time>2020-03-14T10:02:31Z</time>
      </trkpt>
      <trkpt lat="45.78501" lon="6.22367">
        <ele>463.49</ele>
        <time>2020-03-14T10:02:32Z</time>
      </trkpt>
      <trkpt lat="45.78619" lon="6.22213">
        <ele>461.57</ele>
        <time>2020-03-14T10:02:39Z</time>
      </trkpt>
      <trkpt lat="45.78751" lon="6.2204">
        <ele>459.65</ele>
        <time>2020-03-14T10:02:46Z</time>
      </trkpt>
      <trkpt lat="45.7884" lon="6.21923">
        <ele>457.24</ele>
        <time>2020-03-14T10:02:52Z</time>
      </trkpt>
      <trkpt lat="45.78942" lon="6.21789">
        <ele>455.8</ele>
        <time>2020-03-14T10:03:01Z</time>
      </trkpt>
      <trkpt lat="45.78977" lon="6.21745">
        <ele>455.32</ele>
        <time>2020-03-14T10:03:07Z</time>
      </trkpt>
      <trkpt lat="45.79019" lon="6.2169">
        <ele>453.88</ele>
        <time>2020-03-14T10:03:15Z</time>
      </trkpt>
      <trkpt lat="45.79025" lon="6.21681">
        <ele>453.4</ele>
        <time>2020-03-14T10:03:16Z</time>
      </trkpt>
      <trkpt lat="45.79111" lon="6.21571">
        <ele>451.96</ele>
        <time>2020-03-14T10:03:27Z</time>
      </trkpt>
      <trkpt lat="45.79228" lon="6.21415">
        <ele>450.52</ele>
        <time>2020-03-14T10:03:40Z</time>
      </trkpt>
      <trkpt lat="45.79285" lon="6.2136">
        <ele>450.03</ele>
        <time>2020-03-14T10:03:45Z</time>
      </trkpt>
      <trkpt lat="45.79298" lon="6.21353">
        <ele>449.55</ele>
        <time>2020-03-14T10:03:46Z</time>
      </trkpt>
      <trkpt lat="45.79323" lon="6.21342">
        <ele>449.07</ele>
        <time>2020-03-14T10:03:48Z</time>
      </trkpt>
      <trkpt lat="45.79375" lon="6.21336">
        <ele>449.55</ele>
        <time>2020-03-14T10:03:52Z</time>
      </trkpt>
      <trkpt lat="45.79389" lon="6.21335">
        <ele>449.55</ele>
        <time>2020-03-14T10:03:53Z</time>
      </trkpt>
      <trkpt lat="45.79504" lon="6.21321">
        <ele>450.03</ele>
        <time>2020-03-14T10:04:01Z</time>
      </trkpt>
      <trkpt lat="45.79639" lon="6.21304">
        <ele>450.03</ele>
        <time>2020-03-14T10:04:11Z</time>
      </trkpt>
      <trkpt lat="45.79811" lon="6.21282">
        <ele>448.11</ele>
        <time>2020-03-14T10:04:22Z</time>
      </trkpt>
      <trkpt lat="45.7996" lon="6.21264">
        <ele>447.63</ele>
        <time>2020-03-14T10:04:31Z</time>
      </trkpt>
      <trkpt lat="45.80104" lon="6.21248">
        <ele>449.07</ele>
        <time>2020-03-14T10:04:40Z</time>
      </trkpt>
      <trkpt lat="45.80256" lon="6.21228">
        <ele>450.52</ele>
        <time>2020-03-14T10:04:48Z</time>
      </trkpt>
      <trkpt lat="45.80343" lon="6.21211">
        <ele>450.52</ele>
        <time>2020-03-14T10:04:51Z</time>
      </trkpt>
      <trkpt lat="45.80429" lon="6.21194">
        <ele>450.03</ele>
        <time>2020-03-14T10:04:55Z</time>
      </trkpt>
      <trkpt lat="45.80623" lon="6.21155">
        <ele>448.59</ele>
        <time>2020-03-14T10:05:05Z</time>
      </trkpt>
      <trkpt lat="45.80789" lon="6.21105">
        <ele>447.15</ele>
        <time>2020-03-14T10:05:14Z</time>
      </trkpt>
      <trkpt lat="45.80915" lon="6.2108">
        <ele>447.63</ele>
        <time>2020-03-14T10:05:20Z</time>
      </trkpt>
      <trkpt lat="45.81046" lon="6.21053">
        <ele>447.63</ele>
        <time>2020-03-14T10:05:25Z</time>
      </trkpt>
      <trkpt lat="45.81122" lon="6.21033">
        <ele>446.67</ele>
        <time>2020-03-14T10:05:29Z</time>
      </trkpt>
      <trkpt lat="45.81247" lon="6.20999">
        <ele>445.71</ele>
        <time>2020-03-14T10:05:38Z</time>
      </trkpt>
      <trkpt lat="45.81278" lon="6.20989">
        <ele>444.75</ele>
        <time>2020-03-14T10:05:41Z</time>
      </trkpt>
      <trkpt lat="45.81362" lon="6.20962">
        <ele>444.27</ele>
        <time>2020-03-14T10:05:51Z</time>
      </trkpt>
      <trkpt lat="45.81379" lon="6.20956">
        <ele>444.27</ele>
        <time>2020-03-14T10:05:54Z</time>
      </trkpt>
      <trkpt lat="45.81382" lon="6.20955">
        <ele>444.27</ele>
        <time>2020-03-14T10:05:55Z</time>
      </trkpt>
      <trkpt lat="45.81391" lon="6.20952">
        <ele>445.23</ele>
        <time>2020-03-14T10:06:00Z</time>
      </trkpt>
      <trkpt lat="45.81398" lon="6.2095">
        <ele>445.23</ele>
        <time>2020-03-14T10:06:06Z</time>
      </trkpt>
      <trkpt lat="45.81434" lon="6.20931">
        <ele>446.19</ele>
        <time>2020-03-14T10:06:10Z</time>
      </trkpt>
      <trkpt lat="45.81461" lon="6.20906">
        <ele>447.15</ele>
        <time>2020-03-14T10:06:13Z</time>
      </trkpt>
      <trkpt lat="45.81471" lon="6.20896">
        <ele>448.11</ele>
        <time>2020-03-14T10:06:14Z</time>
      </trkpt>
      <trkpt lat="45.81529" lon="6.2084">
        <ele>452.92</ele>
        <time>2020-03-14T10:06:20Z</time>
      </trkpt>
      <trkpt lat="45.81541" lon="6.20835">
        <ele>452.92</ele>
        <time>2020-03-14T10:06:21Z</time>
      </trkpt>
      <trkpt lat="45.81552" lon="6.2083">
        <ele>453.4</ele>
        <time>2020-03-14T10:06:22Z</time>
      </trkpt>
      <trkpt lat="45.81564" lon="6.20826">
        <ele>453.4</ele>
        <time>2020-03-14T10:06:23Z</time>
      </trkpt>
      <trkpt lat="45.81576" lon="6.20823">
        <ele>453.4</ele>
        <time>2020-03-14T10:06:24Z</time>
      </trkpt>
      <trkpt lat="45.81715" lon="6.20806">
        <ele>453.4</ele>
        <time>2020-03-14T10:06:35Z</time>
      </trkpt>
      <trkpt lat="45.81781" lon="6.2079">
        <ele>452.44</ele>
        <time>2020-03-14T10:06:40Z</time>
      </trkpt>
      <trkpt lat="45.81794" lon="6.20786">
        <ele>452.44</ele>
        <time>2020-03-14T10:06:41Z</time>
      </trkpt>
      <trkpt lat="45.81807" lon="6.20781">
        <ele>452.44</ele>
        <time>2020-03-14T10:06:42Z</time>
      </trkpt>
      <trkpt lat="45.81951" lon="6.20701">
        <ele>449.55</ele>
        <time>2020-03-14T10:06:51Z</time>
      </trkpt>
      <trkpt lat="45.82035" lon="6.20676">
        <ele>446.67</ele>
        <time>2020-03-14T10:06:55Z</time>
      </trkpt>
      <trkpt lat="45.82054" lon="6.20675">
        <ele>445.71</ele>
        <time>2020-03-14T10:06:56Z</time>
      </trkpt>
      <trkpt lat="45.82072" lon="6.20674">
        <ele>445.23</ele>
        <time>2020-03-14T10:06:57Z</time>
      </trkpt>
      <trkpt lat="45.82089" lon="6.20683">
        <ele>444.75</ele>
        <time>2020-03-14T10:06:58Z</time>
      </trkpt>
      <trkpt lat="45.82107" lon="6.20693">
        <ele>443.79</ele>
        <time>2020-03-14T10:06:59Z</time>
      </trkpt>
      <trkpt lat="45.82125" lon="6.20703">
        <ele>443.31</ele>
        <time>2020-03-14T10:07:00Z</time>
      </trkpt>
      <trkpt lat="45.82154" lon="6.20724">
        <ele>442.82</ele>
        <time>2020-03-14T10:07:02Z</time>
      </trkpt>
      <trkpt lat="45.82166" lon="6.20738">
        <ele>442.82</ele>
        <time>2020-03-14T10:07:03Z</time>
      </trkpt>
      <trkpt lat="45.82177" lon="6.20756">
        <ele>442.82</ele>
        <time>2020-03-14T10:07:04Z</time>
      </trkpt>
      <trkpt lat="45.82189" lon="6.20775">
        <ele>443.31</ele>
        <time>2020-03-14T10:07:05Z</time>
      </trkpt>
      <trkpt lat="45.82203" lon="6.20792">
        <ele>443.31</ele>
        <time>2020-03-14T10:07:06Z</time>
      </trkpt>
      <trkpt lat="45.82217" lon="6.20809">
        <ele>443.31</ele>
        <time>2020-03-14T10:07:07Z</time>
      </trkpt>
      <trkpt lat="45.82234" lon="6.20823">
        <ele>443.31</ele>
        <time>2020-03-14T10:07:08Z</time>
      </trkpt>
      <trkpt lat="45.8228" lon="6.20862">
        <ele>443.31</ele>
        <time>2020-03-14T10:07:11Z</time>
      </trkpt>
      <trkpt lat="45.82297" lon="6.2087">
        <ele>443.31</ele>
        <time>2020-03-14T10:07:12Z</time>
      </trkpt>
      <trkpt lat="45.82314" lon="6.20878">
        <ele>443.31</ele>
        <time>2020-03-14T10:07:13Z</time>
      </trkpt>
      <trkpt lat="45.82332" lon="6.2088">
        <ele>442.82</ele>
        <time>2020-03-14T10:07:14Z</time>
      </trkpt>
      <trkpt lat="45.82352" lon="6.2088">
        <ele>442.82</ele>
        <time>2020-03-14T10:07:15Z</time>
      </trkpt>
      <trkpt lat="45.82372" lon="6.20875">
        <ele>442.82</ele>
        <time>2020-03-14T10:07:16Z</time>
      </trkpt>
      <trkpt lat="45.82393" lon="6.2087">
        <ele>442.82</ele>
        <time>2020-03-14T10:07:17Z</time>
      </trkpt>
      <trkpt lat="45.82513" lon="6.20842">
        <ele>443.79</ele>
        <time>2020-03-14T10:07:24Z</time>
      </trkpt>
      <trkpt lat="45.82592" lon="6.20814">
        <ele>443.79</ele>
        <time>2020-03-14T10:07:30Z</time>
      </trkpt>
      <trkpt lat="45.82603" lon="6.20802">
        <ele>443.79</ele>
        <time>2020-03-14T10:07:31Z</time>
      </trkpt>
      <trkpt lat="45.82624" lon="6.20777">
        <ele>444.27</ele>
        <time>2020-03-14T10:07:33Z</time>
      </trkpt>
      <trkpt lat="45.82635" lon="6.20764">
        <ele>444.27</ele>
        <time>2020-03-14T10:07:34Z</time>
      </trkpt>
      <trkpt lat="45.82669" lon="6.20728">
        <ele>444.27</ele>
        <time>2020-03-14T10:07:37Z</time>
      </trkpt>
      <trkpt lat="45.82681" lon="6.20719">
        <ele>444.27</ele>
        <time>2020-03-14T10:07:38Z</time>
      </trkpt>
      <trkpt lat="45.82696" lon="6.20713">
        <ele>444.27</ele>
        <time>2020-03-14T10:07:39Z</time>
      </trkpt>
      <trkpt lat="45.82757" lon="6.20696">
        <ele>445.23</ele>
        <time>2020-03-14T10:07:43Z</time>
      </trkpt>
      <trkpt lat="45.82888" lon="6.20662">
        <ele>445.71</ele>
        <time>2020-03-14T10:07:52Z</time>
      </trkpt>
      <trkpt lat="45.8299" lon="6.20632">
        <ele>445.71</ele>
        <time>2020-03-14T10:08:00Z</time>
      </trkpt>
      <trkpt lat="45.82996" lon="6.20627">
        <ele>445.71</ele>
        <time>2020-03-14T10:08:01Z</time>
      </trkpt>
      <trkpt lat="45.83001" lon="6.20618">
        <ele>445.71</ele>
        <time>2020-03-14T10:08:02Z</time>
      </trkpt>
      <trkpt lat="45.83002" lon="6.2061">
        <ele>445.71</ele>
        <time>2020-03-14T10:08:03Z</time>
      </trkpt>
      <trkpt lat="45.83" lon="6.20599">
        <ele>445.71</ele>
        <time>2020-03-14T10:08:04Z</time>
      </trkpt>
      <trkpt lat="45.82997" lon="6.20589">
        <ele>445.71</ele>
        <time>2020-03-14T10:08:05Z</time>
      </trkpt>
      <trkpt lat="45.82989" lon="6.20577">
        <ele>445.71</ele>
        <time>2020-03-14T10:08:06Z</time>
      </trkpt>
      <trkpt lat="45.8298" lon="6.20564">
        <ele>445.71</ele>
        <time>2020-03-14T10:08:07Z</time>
      </trkpt>
      <trkpt lat="45.8297" lon="6.20551">
        <ele>445.71</ele>
        <time>2020-03-14T10:08:08Z</time>
      </trkpt>
      <trkpt lat="45.82873" lon="6.20432">
        <ele>446.19</ele>
        <time>2020-03-14T10:08:19Z</time>
      </trkpt>
      <trkpt lat="45.82829" lon="6.20358">
        <ele>448.11</ele>
        <time>2020-03-14T10:08:25Z</time>
      </trkpt>
      <trkpt lat="45.82823" lon="6.20345">
        <ele>448.59</ele>
        <time>2020-03-14T10:08:26Z</time>
      </trkpt>
      <trkpt lat="45.82774" lon="6.20228">
        <ele>449.55</ele>
        <time>2020-03-14T10:08:34Z</time>
      </trkpt>
      <trkpt lat="45.8277" lon="6.20211">
        <ele>449.07</ele>
        <time>2020-03-14T10:08:35Z</time>
      </trkpt>
      <trkpt lat="45.82761" lon="6.20052">
        <ele>451</ele>
        <time>2020-03-14T10:08:44Z</time>
      </trkpt>
      <trkpt lat="45.82752" lon="6.19874">
        <ele>451.48</ele>
        <time>2020-03-14T10:08:55Z</time>
      </trkpt>
      <trkpt lat="45.82741" lon="6.19743">
        <ele>452.92</ele>
        <time>2020-03-14T10:09:03Z</time>
      </trkpt>
      <trkpt lat="45.82738" lon="6.19715">
        <ele>452.44</ele>
        <time>2020-03-14T10:09:05Z</time>
      </trkpt>
      <trkpt lat="45.82736" lon="6.1969">
        <ele>452.44</ele>
        <time>2020-03-14T10:09:07Z</time>
      </trkpt>
      <trkpt lat="45.82734" lon="6.1968">
        <ele>452.44</ele>
        <time>2020-03-14T10:09:08Z</time>
      </trkpt>
      <trkpt lat="45.82733" lon="6.19669">
        <ele>452.44</ele>
        <time>2020-03-14T10:09:09Z</time>
      </trkpt>
      <trkpt lat="45.82739" lon="6.19642">
        <ele>452.44</ele>
        <time>2020-03-14T10:09:10Z</time>
      </trkpt>
      <trkpt lat="45.82739" lon="6.19642">
        <ele>451.96</ele>
        <time>2020-03-14T10:09:11Z</time>
      </trkpt>
      <trkpt lat="45.82742" lon="6.1963">
        <ele>451.96</ele>
        <time>2020-03-14T10:09:12Z</time>
      </trkpt>
      <trkpt lat="45.82743" lon="6.19627">
        <ele>451.48</ele>
        <time>2020-03-14T10:09:13Z</time>
      </trkpt>
      <trkpt lat="45.82738" lon="6.19596">
        <ele>451.48</ele>
        <time>2020-03-14T10:09:14Z</time>
      </trkpt>
      <trkpt lat="45.82743" lon="6.19581">
        <ele>451</ele>
        <time>2020-03-14T10:09:15Z</time>
      </trkpt>
      <trkpt lat="45.82748" lon="6.19565">
        <ele>450.52</ele>
        <time>2020-03-14T10:09:16Z</time>
      </trkpt>
      <trkpt lat="45.82794" lon="6.19378">
        <ele>449.07</ele>
        <time>2020-03-14T10:09:26Z</time>
      </trkpt>
      <trkpt lat="45.82847" lon="6.19113">
        <ele>451</ele>
        <time>2020-03-14T10:09:39Z</time>
      </trkpt>
      <trkpt lat="45.82888" lon="6.18896">
        <ele>452.92</ele>
        <time>2020-03-14T10:09:50Z</time>
      </trkpt>
      <trkpt lat="45.82932" lon="6.1867">
        <ele>452.92</ele>
        <time>2020-03-14T10:10:01Z</time>
      </trkpt>
      <trkpt lat="45.82984" lon="6.18408">
        <ele>451.48</ele>
        <time>2020-03-14T10:10:13Z</time>
      </trkpt>
      <trkpt lat="45.83019" lon="6.18216">
        <ele>453.4</ele>
        <time>2020-03-14T10:10:23Z</time>
      </trkpt>
      <trkpt lat="45.83051" lon="6.18049">
        <ele>454.84</ele>
        <time>2020-03-14T10:10:34Z</time>
      </trkpt>
      <trkpt lat="45.83054" lon="6.18031">
        <ele>455.32</ele>
        <time>2020-03-14T10:10:36Z</time>
      </trkpt>
      <trkpt lat="45.83056" lon="6.18022">
        <ele>455.32</ele>
        <time>2020-03-14T10:10:37Z</time>
      </trkpt>
      <trkpt lat="45.83071" lon="6.17985">
        <ele>455.8</ele>
        <time>2020-03-14T10:10:41Z</time>
      </trkpt>
      <trkpt lat="45.83071" lon="6.17978">
        <ele>456.28</ele>
        <time>2020-03-14T10:10:42Z</time>
      </trkpt>
      <trkpt lat="45.8307" lon="6.17948">
        <ele>456.76</ele>
        <time>2020-03-14T10:10:44Z</time>
      </trkpt>
      <trkpt lat="45.83073" lon="6.17934">
        <ele>457.24</ele>
        <time>2020-03-14T10:10:45Z</time>
      </trkpt>
      <trkpt lat="45.83093" lon="6.17832">
        <ele>458.69</ele>
        <time>2020-03-14T10:10:52Z</time>
      </trkpt>
      <trkpt lat="45.83128" lon="6.1766">
        <ele>459.65</ele>
        <time>2020-03-14T10:11:02Z</time>
      </trkpt>
      <trkpt lat="45.8316" lon="6.17507">
        <ele>460.13</ele>
        <time>2020-03-14T10:11:12Z</time>
      </trkpt>
      <trkpt lat="45.8317" lon="6.17466">
        <ele>461.09</ele>
        <time>2020-03-14T10:11:18Z</time>
      </trkpt>
      <trkpt lat="45.83174" lon="6.17445">
        <ele>461.57</ele>
        <time>2020-03-14T10:11:22Z</time>
      </trkpt>
      <trkpt lat="45.83177" lon="6.17435">
        <ele>461.57</ele>
        <time>2020-03-14T10:11:23Z</time>
      </trkpt>
      <trkpt lat="45.83194" lon="6.17344">
        <ele>461.09</ele>
        <time>2020-03-14T10:11:28Z</time>
      </trkpt>
      <trkpt lat="45.83204" lon="6.17281">
        <ele>462.53</ele>
        <time>2020-03-14T10:11:33Z</time>
      </trkpt>
      <trkpt lat="45.83217" lon="6.17247">
        <ele>464.93</ele>
        <time>2020-03-14T10:11:38Z</time>
      </trkpt>
      <trkpt lat="45.83222" lon="6.17239">
        <ele>465.9</ele>
        <time>2020-03-14T10:11:42Z</time>
      </trkpt>
      <trkpt lat="45.83224" lon="6.17232">
        <ele>465.9</ele>
        <time>2020-03-14T10:11:43Z</time>
      </trkpt>
      <trkpt lat="45.83217" lon="6.17217">
        <ele>465.9</ele>
        <time>2020-03-14T10:11:44Z</time>
      </trkpt>
      <trkpt lat="45.83222" lon="6.17196">
        <ele>465.42</ele>
        <time>2020-03-14T10:11:46Z</time>
      </trkpt>
      <trkpt lat="45.83228" lon="6.17175">
        <ele>463.01</ele>
        <time>2020-03-14T10:11:51Z</time>
      </trkpt>
      <trkpt lat="45.83236" lon="6.17138">
        <ele>463.01</ele>
        <time>2020-03-14T10:12:00Z</time>
      </trkpt>
      <trkpt lat="45.83259" lon="6.17016">
        <ele>463.97</ele>
        <time>2020-03-14T10:12:10Z</time>
      </trkpt>
      <trkpt lat="45.83272" lon="6.16946">
        <ele>462.53</ele>
        <time>2020-03-14T10:12:18Z</time>
      </trkpt>
      <trkpt lat="45.83283" lon="6.16895">
        <ele>461.57</ele>
        <time>2020-03-14T10:12:25Z</time>
      </trkpt>
      <trkpt lat="45.83295" lon="6.16834">
        <ele>462.05</ele>
        <time>2020-03-14T10:12:30Z</time>
      </trkpt>
      <trkpt lat="45.83299" lon="6.1681">
        <ele>462.53</ele>
        <time>2020-03-14T10:12:32Z</time>
      </trkpt>
      <trkpt lat="45.83302" lon="6.16796">
        <ele>462.53</ele>
        <time>2020-03-14T10:12:33Z</time>
      </trkpt>
      <trkpt lat="45.83304" lon="6.16783">
        <ele>462.05</ele>
        <time>2020-03-14T10:12:34Z</time>
      </trkpt>
      <trkpt lat="45.83306" lon="6.16769">
        <ele>462.05</ele>
        <time>2020-03-14T10:12:35Z</time>
      </trkpt>
      <trkpt lat="45.83309" lon="6.16757">
        <ele>462.53</ele>
        <time>2020-03-14T10:12:36Z</time>
      </trkpt>
      <trkpt lat="45.83325" lon="6.16665">
        <ele>465.9</ele>
        <time>2020-03-14T10:12:45Z</time>
      </trkpt>
      <trkpt lat="45.83352" lon="6.16526">
        <ele>466.86</ele>
        <time>2020-03-14T10:12:56Z</time>
      </trkpt>
      <trkpt lat="45.83365" lon="6.16459">
        <ele>467.34</ele>
        <time>2020-03-14T10:13:03Z</time>
      </trkpt>
      <trkpt lat="45.83373" lon="6.16427">
        <ele>468.78</ele>
        <time>2020-03-14T10:13:06Z</time>
      </trkpt>
      <trkpt lat="45.83379" lon="6.16405">
        <ele>469.74</ele>
        <time>2020-03-14T10:13:08Z</time>
      </trkpt>
      <trkpt lat="45.83383" lon="6.16392">
        <ele>470.22</ele>
        <time>2020-03-14T10:13:09Z</time>
      </trkpt>
      <trkpt lat="45.83388" lon="6.16381">
        <ele>470.7</ele>
        <time>2020-03-14T10:13:10Z</time>
      </trkpt>
      <trkpt lat="45.83409" lon="6.16337">
        <ele>472.14</ele>
        <time>2020-03-14T10:13:14Z</time>
      </trkpt>
      <trkpt lat="45.83413" lon="6.16328">
        <ele>472.14</ele>
        <time>2020-03-14T10:13:15Z</time>
      </trkpt>
      <trkpt lat="45.83462" lon="6.16236">
        <ele>469.74</ele>
        <time>2020-03-14T10:13:24Z</time>
      </trkpt>
      <trkpt lat="45.83556" lon="6.16118">
        <ele>467.82</ele>
        <time>2020-03-14T10:13:34Z</time>
      </trkpt>
      <trkpt lat="45.83562" lon="6.16109">
        <ele>467.82</ele>
        <time>2020-03-14T10:13:35Z</time>
      </trkpt>
      <trkpt lat="45.83572" lon="6.16097">
        <ele>466.86</ele>
        <time>2020-03-14T10:13:37Z</time>
      </trkpt>
      <trkpt lat="45.83575" lon="6.16093">
        <ele>466.38</ele>
        <time>2020-03-14T10:13:38Z</time>
      </trkpt>
      <trkpt lat="45.83578" lon="6.1609">
        <ele>466.38</ele>
        <time>2020-03-14T10:13:39Z</time>
      </trkpt>
      <trkpt lat="45.83581" lon="6.16087">
        <ele>466.38</ele>
        <time>2020-03-14T10:13:40Z</time>
      </trkpt>
      <trkpt lat="45.83583" lon="6.16084">
        <ele>466.38</ele>
        <time>2020-03-14T10:13:41Z</time>
      </trkpt>
      <trkpt lat="45.83586" lon="6.1608">
        <ele>465.9</ele>
        <time>2020-03-14T10:13:42Z</time>
      </trkpt>
      <trkpt lat="45.83597" lon="6.16086">
        <ele>465.9</ele>
        <time>2020-03-14T10:13:43Z</time>
      </trkpt>
      <trkpt lat="45.83598" lon="6.16086">
        <ele>465.42</ele>
        <time>2020-03-14T10:13:50Z</time>
      </trkpt>
      <trkpt lat="45.83606" lon="6.16079">
        <ele>464.93</ele>
        <time>2020-03-14T10:13:54Z</time>
      </trkpt>
      <trkpt lat="45.8361" lon="6.16067">
        <ele>464.45</ele>
        <time>2020-03-14T10:13:55Z</time>
      </trkpt>
      <trkpt lat="45.83611" lon="6.16053">
        <ele>464.45</ele>
        <time>2020-03-14T10:13:57Z</time>
      </trkpt>
      <trkpt lat="45.83616" lon="6.16045">
        <ele>463.97</ele>
        <time>2020-03-14T10:13:58Z</time>
      </trkpt>
      <trkpt lat="45.83683" lon="6.15958">
        <ele>462.53</ele>
        <time>2020-03-14T10:14:06Z</time>
      </trkpt>
      <trkpt lat="45.83787" lon="6.15826">
        <ele>461.09</ele>
        <time>2020-03-14T10:14:17Z</time>
      </trkpt>
      <trkpt lat="45.839" lon="6.15682">
        <ele>458.21</ele>
        <time>2020-03-14T10:14:28Z</time>
      </trkpt>
      <trkpt lat="45.84033" lon="6.15513">
        <ele>458.21</ele>
        <time>2020-03-14T10:14:38Z</time>
      </trkpt>
      <trkpt lat="45.84216" lon="6.15279">
        <ele>456.28</ele>
        <time>2020-03-14T10:14:51Z</time>
      </trkpt>
      <trkpt lat="45.84353" lon="6.15102">
        <ele>456.28</ele>
        <time>2020-03-14T10:15:03Z</time>
      </trkpt>
      <trkpt lat="45.84463" lon="6.14951">
        <ele>456.76</ele>
        <time>2020-03-14T10:15:14Z</time>
      </trkpt>
      <trkpt lat="45.84524" lon="6.14885">
        <ele>457.72</ele>
        <time>2020-03-14T10:15:21Z</time>
      </trkpt>
      <trkpt lat="45.8453" lon="6.1488">
        <ele>457.24</ele>
        <time>2020-03-14T10:15:22Z</time>
      </trkpt>
      <trkpt lat="45.84538" lon="6.14877">
        <ele>457.24</ele>
        <time>2020-03-14T10:15:23Z</time>
      </trkpt>
      <trkpt lat="45.84552" lon="6.14883">
        <ele>458.21</ele>
        <time>2020-03-14T10:15:24Z</time>
      </trkpt>
      <trkpt lat="45.84555" lon="6.14882">
        <ele>458.69</ele>
        <time>2020-03-14T10:15:25Z</time>
      </trkpt>
      <trkpt lat="45.84565" lon="6.14876">
        <ele>459.17</ele>
        <time>2020-03-14T10:15:26Z</time>
      </trkpt>
      <trkpt lat="45.84571" lon="6.14868">
        <ele>459.17</ele>
        <time>2020-03-14T10:15:27Z</time>
      </trkpt>
      <trkpt lat="45.84576" lon="6.14854">
        <ele>459.65</ele>
        <time>2020-03-14T10:15:28Z</time>
      </trkpt>
      <trkpt lat="45.84577" lon="6.14843">
        <ele>459.65</ele>
        <time>2020-03-14T10:15:29Z</time>
      </trkpt>
      <trkpt lat="45.84578" lon="6.14831">
        <ele>459.17</ele>
        <time>2020-03-14T10:15:30Z</time>
      </trkpt>
      <trkpt lat="45.84582" lon="6.1482">
        <ele>459.17</ele>
        <time>2020-03-14T10:15:31Z</time>
      </trkpt>
      <trkpt lat="45.84589" lon="6.14808">
        <ele>459.17</ele>
        <time>2020-03-14T10:15:32Z</time>
      </trkpt>
      <trkpt lat="45.84597" lon="6.14794">
        <ele>459.65</ele>
        <time>2020-03-14T10:15:33Z</time>
      </trkpt>
      <trkpt lat="45.84707" lon="6.14688">
        <ele>461.57</ele>
        <time>2020-03-14T10:15:43Z</time>
      </trkpt>
      <trkpt lat="45.84827" lon="6.14616">
        <ele>461.09</ele>
        <time>2020-03-14T10:15:52Z</time>
      </trkpt>
      <trkpt lat="45.8497" lon="6.14561">
        <ele>460.13</ele>
        <time>2020-03-14T10:16:02Z</time>
      </trkpt>
      <trkpt lat="45.85065" lon="6.14526">
        <ele>458.21</ele>
        <time>2020-03-14T10:16:10Z</time>
      </trkpt>
      <trkpt lat="45.85224" lon="6.14465">
        <ele>455.8</ele>
        <time>2020-03-14T10:16:22Z</time>
      </trkpt>
      <trkpt lat="45.85413" lon="6.14394">
        <ele>453.88</ele>
        <time>2020-03-14T10:16:35Z</time>
      </trkpt>
      <trkpt lat="45.85615" lon="6.1432">
        <ele>451</ele>
        <time>2020-03-14T10:16:48Z</time>
      </trkpt>
      <trkpt lat="45.8582" lon="6.14242">
        <ele>447.15</ele>
        <time>2020-03-14T10:17:01Z</time>
      </trkpt>
      <trkpt lat="45.85946" lon="6.14197">
        <ele>445.71</ele>
        <time>2020-03-14T10:17:11Z</time>
      </trkpt>
      <trkpt lat="45.86035" lon="6.14164">
        <ele>447.63</ele>
        <time>2020-03-14T10:17:19Z</time>
      </trkpt>
      <trkpt lat="45.8616" lon="6.14119">
        <ele>451.48</ele>
        <time>2020-03-14T10:17:30Z</time>
      </trkpt>
      <trkpt lat="45.8617" lon="6.14115">
        <ele>451.96</ele>
        <time>2020-03-14T10:17:31Z</time>
      </trkpt>
      <trkpt lat="45.86181" lon="6.14111">
        <ele>452.44</ele>
        <time>2020-03-14T10:17:32Z</time>
      </trkpt>
      <trkpt lat="45.86191" lon="6.14107">
        <ele>452.92</ele>
        <time>2020-03-14T10:17:33Z</time>
      </trkpt>
      <trkpt lat="45.862" lon="6.14103">
        <ele>452.92</ele>
        <time>2020-03-14T10:17:34Z</time>
      </trkpt>
      <trkpt lat="45.86208" lon="6.14099">
        <ele>452.92</ele>
        <time>2020-03-14T10:17:35Z</time>
      </trkpt>
      <trkpt lat="45.86215" lon="6.14097">
        <ele>453.4</ele>
        <time>2020-03-14T10:17:36Z</time>
      </trkpt>
      <trkpt lat="45.86223" lon="6.14093">
        <ele>453.88</ele>
        <time>2020-03-14T10:17:38Z</time>
      </trkpt>
      <trkpt lat="45.86223" lon="6.14093">
        <ele>453.88</ele>
        <time>2020-03-14T10:17:39Z</time>
      </trkpt>
      <trkpt lat="45.86241" lon="6.14089">
        <ele>454.36</ele>
        <time>2020-03-14T10:17:40Z</time>
      </trkpt>
      <trkpt lat="45.86244" lon="6.14089">
        <ele>454.84</ele>
        <time>2020-03-14T10:17:41Z</time>
      </trkpt>
      <trkpt lat="45.86254" lon="6.14089">
        <ele>455.32</ele>
        <time>2020-03-14T10:17:42Z</time>
      </trkpt>
      <trkpt lat="45.86269" lon="6.14076">
        <ele>455.32</ele>
        <time>2020-03-14T10:17:43Z</time>
      </trkpt>
      <trkpt lat="45.86274" lon="6.14075">
        <ele>455.32</ele>
        <time>2020-03-14T10:17:44Z</time>
      </trkpt>
      <trkpt lat="45.86283" lon="6.14073">
        <ele>455.32</ele>
        <time>2020-03-14T10:17:45Z</time>
      </trkpt>
      <trkpt lat="45.86293" lon="6.1407">
        <ele>455.32</ele>
        <time>2020-03-14T10:17:46Z</time>
      </trkpt>
      <trkpt lat="45.86303" lon="6.14066">
        <ele>455.32</ele>
        <time>2020-03-14T10:17:47Z</time>
      </trkpt>
      <trkpt lat="45.86313" lon="6.14063">
        <ele>454.84</ele>
        <time>2020-03-14T10:17:48Z</time>
      </trkpt>
      <trkpt lat="45.86406" lon="6.14026">
        <ele>452.92</ele>
        <time>2020-03-14T10:17:58Z</time>
      </trkpt>
      <trkpt lat="45.86515" lon="6.13986">
        <ele>452.44</ele>
        <time>2020-03-14T10:18:08Z</time>
      </trkpt>
      <trkpt lat="45.8659" lon="6.13979">
        <ele>450.03</ele>
        <time>2020-03-14T10:18:14Z</time>
      </trkpt>
      <trkpt lat="45.86639" lon="6.13988">
        <ele>449.07</ele>
        <time>2020-03-14T10:18:18Z</time>
      </trkpt>
      <trkpt lat="45.86651" lon="6.13991">
        <ele>449.07</ele>
        <time>2020-03-14T10:18:19Z</time>
      </trkpt>
      <trkpt lat="45.86825" lon="6.14027">
        <ele>451.96</ele>
        <time>2020-03-14T10:18:32Z</time>
      </trkpt>
      <trkpt lat="45.86946" lon="6.14049">
        <ele>456.76</ele>
        <time>2020-03-14T10:18:42Z</time>
      </trkpt>
      <trkpt lat="45.87058" lon="6.14071">
        <ele>459.17</ele>
        <time>2020-03-14T10:18:51Z</time>
      </trkpt>
      <trkpt lat="45.87132" lon="6.14089">
        <ele>460.61</ele>
        <time>2020-03-14T10:18:57Z</time>
      </trkpt>
      <trkpt lat="45.87145" lon="6.14093">
        <ele>460.13</ele>
        <time>2020-03-14T10:18:58Z</time>
      </trkpt>
      <trkpt lat="45.87286" lon="6.14128">
        <ele>457.72</ele>
        <time>2020-03-14T10:19:09Z</time>
      </trkpt>
      <trkpt lat="45.87371" lon="6.14148">
        <ele>453.88</ele>
        <time>2020-03-14T10:19:16Z</time>
      </trkpt>
      <trkpt lat="45.87382" lon="6.1415">
        <ele>453.4</ele>
        <time>2020-03-14T10:19:17Z</time>
      </trkpt>
      <trkpt lat="45.87507" lon="6.14157">
        <ele>451.48</ele>
        <time>2020-03-14T10:19:27Z</time>
      </trkpt>
      <trkpt lat="45.87679" lon="6.14165">
        <ele>455.8</ele>
        <time>2020-03-14T10:19:40Z</time>
      </trkpt>
      <trkpt lat="45.87855" lon="6.14172">
        <ele>458.69</ele>
        <time>2020-03-14T10:19:53Z</time>
      </trkpt>
      <trkpt lat="45.87868" lon="6.14173">
        <ele>458.21</ele>
        <time>2020-03-14T10:19:54Z</time>
      </trkpt>
      <trkpt lat="45.87947" lon="6.14177">
        <ele>454.36</ele>
        <time>2020-03-14T10:20:01Z</time>
      </trkpt>
      <trkpt lat="45.87989" lon="6.1418">
        <ele>451.48</ele>
        <time>2020-03-14T10:20:06Z</time>
      </trkpt>
      <trkpt lat="45.88017" lon="6.14182">
        <ele>447.15</ele>
        <time>2020-03-14T10:20:14Z</time>
      </trkpt>
      <trkpt lat="45.88069" lon="6.14185">
        <ele>445.23</ele>
        <time>2020-03-14T10:20:25Z</time>
      </trkpt>
      <trkpt lat="45.88085" lon="6.14185">
        <ele>445.23</ele>
        <time>2020-03-14T10:20:27Z</time>
      </trkpt>
      <trkpt lat="45.8819" lon="6.14192">
        <ele>441.38</ele>
        <time>2020-03-14T10:20:39Z</time>
      </trkpt>
      <trkpt lat="45.88267" lon="6.14194">
        <ele>437.54</ele>
        <time>2020-03-14T10:20:48Z</time>
      </trkpt>
      <trkpt lat="45.88316" lon="6.14196">
        <ele>436.1</ele>
        <time>2020-03-14T10:20:55Z</time>
      </trkpt>
      <trkpt lat="45.88392" lon="6.14209">
        <ele>436.58</ele>
        <time>2020-03-14T10:21:05Z</time>
      </trkpt>
      <trkpt lat="45.88488" lon="6.14227">
        <ele>440.9</ele>
        <time>2020-03-14T10:21:13Z</time>
      </trkpt>
      <trkpt lat="45.88584" lon="6.14262">
        <ele>444.27</ele>
        <time>2020-03-14T10:21:24Z</time>
      </trkpt>
      <trkpt lat="45.88647" lon="6.14293">
        <ele>446.67</ele>
        <time>2020-03-14T10:21:34Z</time>
      </trkpt>
      <trkpt lat="45.8872" lon="6.14323">
        <ele>447.63</ele>
        <time>2020-03-14T10:21:41Z</time>
      </trkpt>
      <trkpt lat="45.88852" lon="6.14357">
        <ele>448.11</ele>
        <time>2020-03-14T10:21:54Z</time>
      </trkpt>
      <trkpt lat="45.88863" lon="6.14358">
        <ele>447.63</ele>
        <time>2020-03-14T10:21:55Z</time>
      </trkpt>
      <trkpt lat="45.88875" lon="6.14358">
        <ele>447.63</ele>
        <time>2020-03-14T10:21:56Z</time>
      </trkpt>
      <trkpt lat="45.88969" lon="6.14347">
        <ele>445.71</ele>
        <time>2020-03-14T10:22:04Z</time>
      </trkpt>
      <trkpt lat="45.88982" lon="6.14343">
        <ele>445.71</ele>
        <time>2020-03-14T10:22:05Z</time>
      </trkpt>
      <trkpt lat="45.88994" lon="6.14334">
        <ele>445.23</ele>
        <time>2020-03-14T10:22:06Z</time>
      </trkpt>
      <trkpt lat="45.89006" lon="6.14323">
        <ele>445.23</ele>
        <time>2020-03-14T10:22:07Z</time>
      </trkpt>
      <trkpt lat="45.89015" lon="6.14309">
        <ele>445.23</ele>
        <time>2020-03-14T10:22:08Z</time>
      </trkpt>
      <trkpt lat="45.89024" lon="6.14296">
        <ele>445.23</ele>
        <time>2020-03-14T10:22:09Z</time>
      </trkpt>
      <trkpt lat="45.89032" lon="6.14282">
        <ele>445.23</ele>
        <time>2020-03-14T10:22:10Z</time>
      </trkpt>
      <trkpt lat="45.8904" lon="6.1427">
        <ele>445.23</ele>
        <time>2020-03-14T10:22:11Z</time>
      </trkpt>
      <trkpt lat="45.89044" lon="6.14254">
        <ele>445.23</ele>
        <time>2020-03-14T10:22:12Z</time>
      </trkpt>
      <trkpt lat="45.89052" lon="6.14222">
        <ele>445.23</ele>
        <time>2020-03-14T10:22:14Z</time>
      </trkpt>
      <trkpt lat="45.89056" lon="6.14204">
        <ele>445.71</ele>
        <time>2020-03-14T10:22:15Z</time>
      </trkpt>
      <trkpt lat="45.89057" lon="6.14189">
        <ele>445.23</ele>
        <time>2020-03-14T10:22:16Z</time>
      </trkpt>
      <trkpt lat="45.89082" lon="6.14041">
        <ele>445.71</ele>
        <time>2020-03-14T10:22:26Z</time>
      </trkpt>
      <trkpt lat="45.8909" lon="6.14022">
        <ele>446.19</ele>
        <time>2020-03-14T10:22:28Z</time>
      </trkpt>
      <trkpt lat="45.89094" lon="6.14014">
        <ele>446.19</ele>
        <time>2020-03-14T10:22:29Z</time>
      </trkpt>
      <trkpt lat="45.89112" lon="6.13979">
        <ele>447.15</ele>
        <time>2020-03-14T10:22:33Z</time>
      </trkpt>
      <trkpt lat="45.89153" lon="6.13903">
        <ele>446.19</ele>
        <time>2020-03-14T10:22:41Z</time>
      </trkpt>
      <trkpt lat="45.89171" lon="6.13872">
        <ele>448.59</ele>
        <time>2020-03-14T10:22:45Z</time>
      </trkpt>
      <trkpt lat="45.89176" lon="6.13863">
        <ele>449.55</ele>
        <time>2020-03-14T10:22:46Z</time>
      </trkpt>
      <trkpt lat="45.89247" lon="6.1374">
        <ele>452.44</ele>
        <time>2020-03-14T10:22:58Z</time>
      </trkpt>
      <trkpt lat="45.89252" lon="6.13731">
        <ele>452.44</ele>
        <time>2020-03-14T10:22:59Z</time>
      </trkpt>
      <trkpt lat="45.89319" lon="6.1362">
        <ele>453.4</ele>
        <time>2020-03-14T10:23:09Z</time>
      </trkpt>
      <trkpt lat="45.89394" lon="6.13511">
        <ele>454.36</ele>
        <time>2020-03-14T10:23:19Z</time>
      </trkpt>
      <trkpt lat="45.89426" lon="6.13466">
        <ele>453.88</ele>
        <time>2020-03-14T10:23:25Z</time>
      </trkpt>
      <trkpt lat="45.89457" lon="6.13427">
        <ele>452.92</ele>
        <time>2020-03-14T10:23:35Z</time>
      </trkpt>
      <trkpt lat="45.89459" lon="6.13423">
        <ele>452.44</ele>
        <time>2020-03-14T10:23:36Z</time>
      </trkpt>
      <trkpt lat="45.89486" lon="6.13394">
        <ele>450.03</ele>
        <time>2020-03-14T10:23:46Z</time>
      </trkpt>
      <trkpt lat="45.8949" lon="6.1339">
        <ele>449.55</ele>
        <time>2020-03-14T10:23:47Z</time>
      </trkpt>
      <trkpt lat="45.89499" lon="6.13379">
        <ele>449.07</ele>
        <time>2020-03-14T10:23:49Z</time>
      </trkpt>
      <trkpt lat="45.89504" lon="6.13373">
        <ele>448.59</ele>
        <time>2020-03-14T10:23:50Z</time>
      </trkpt>
      <trkpt lat="45.8954" lon="6.13333">
        <ele>449.55</ele>
        <time>2020-03-14T10:23:58Z</time>
      </trkpt>
      <trkpt lat="45.89573" lon="6.13293">
        <ele>448.59</ele>
        <time>2020-03-14T10:24:08Z</time>
      </trkpt>
      <trkpt lat="45.89612" lon="6.13249">
        <ele>449.07</ele>
        <time>2020-03-14T10:24:17Z</time>
      </trkpt>
      <trkpt lat="45.89635" lon="6.13223">
        <ele>449.55</ele>
        <time>2020-03-14T10:24:26Z</time>
      </trkpt>
      <trkpt lat="45.89648" lon="6.13208">
        <ele>449.55</ele>
        <time>2020-03-14T10:24:29Z</time>
      </trkpt>
      <trkpt lat="45.89676" lon="6.13187">
        <ele>448.59</ele>
        <time>2020-03-14T10:24:35Z</time>
      </trkpt>
      <trkpt lat="45.89677" lon="6.13186">
        <ele>448.59</ele>
        <time>2020-03-14T10:24:36Z</time>
      </trkpt>
      <trkpt lat="45.89681" lon="6.13183">
        <ele>449.07</ele>
        <time>2020-03-14T10:24:37Z</time>
      </trkpt>
      <trkpt lat="45.89685" lon="6.13181">
        <ele>449.07</ele>
        <time>2020-03-14T10:24:38Z</time>
      </trkpt>
      <trkpt lat="45.89689" lon="6.13162">
        <ele>449.07</ele>
        <time>2020-03-14T10:24:39Z</time>
      </trkpt>
      <trkpt lat="45.8972" lon="6.13133">
        <ele>449.55</ele>
        <time>2020-03-14T10:24:42Z</time>
      </trkpt>
      <trkpt lat="45.89758" lon="6.13087">
        <ele>451</ele>
        <time>2020-03-14T10:24:46Z</time>
      </trkpt>
      <trkpt lat="45.89773" lon="6.13059">
        <ele>451.96</ele>
        <time>2020-03-14T10:24:48Z</time>
      </trkpt>
      <trkpt lat="45.89778" lon="6.13043">
        <ele>451.96</ele>
        <time>2020-03-14T10:24:49Z</time>
      </trkpt>
      <trkpt lat="45.89781" lon="6.13027">
        <ele>451.48</ele>
        <time>2020-03-14T10:24:50Z</time>
      </trkpt>
      <trkpt lat="45.89783" lon="6.13009">
        <ele>451.48</ele>
        <time>2020-03-14T10:24:51Z</time>
      </trkpt>
      <trkpt lat="45.89786" lon="6.12991">
        <ele>451.48</ele>
        <time>2020-03-14T10:24:52Z</time>
      </trkpt>
      <trkpt lat="45.89798" lon="6.12932">
        <ele>451</ele>
        <time>2020-03-14T10:24:56Z</time>
      </trkpt>
      <trkpt lat="45.89802" lon="6.1292">
        <ele>451</ele>
        <time>2020-03-14T10:24:57Z</time>
      </trkpt>
      <trkpt lat="45.89808" lon="6.12912">
        <ele>451</ele>
        <time>2020-03-14T10:24:58Z</time>
      </trkpt>
      <trkpt lat="45.89816" lon="6.12906">
        <ele>451</ele>
        <time>2020-03-14T10:24:59Z</time>
      </trkpt>
      <trkpt lat="45.89826" lon="6.12905">
        <ele>451</ele>
        <time>2020-03-14T10:25:00Z</time>
      </trkpt>
      <trkpt lat="45.89837" lon="6.12905">
        <ele>451.48</ele>
        <time>2020-03-14T10:25:01Z</time>
      </trkpt>
      <trkpt lat="45.89847" lon="6.12903">
        <ele>451.96</ele>
        <time>2020-03-14T10:25:02Z</time>
      </trkpt>
      <trkpt lat="45.89858" lon="6.12899">
        <ele>451.96</ele>
        <time>2020-03-14T10:25:03Z</time>
      </trkpt>
      <trkpt lat="45.89868" lon="6.12895">
        <ele>451.96</ele>
        <time>2020-03-14T10:25:04Z</time>
      </trkpt>
      <trkpt lat="45.8998" lon="6.12831">
        <ele>450.52</ele>
        <time>2020-03-14T10:25:16Z</time>
      </trkpt>
      <trkpt lat="45.90069" lon="6.12771">
        <ele>445.71</ele>
        <time>2020-03-14T10:25:25Z</time>
      </trkpt>
      <trkpt lat="45.90088" lon="6.12761">
        <ele>445.71</ele>
        <time>2020-03-14T10:25:27Z</time>
      </trkpt>
      <trkpt lat="45.90096" lon="6.12757">
        <ele>445.23</ele>
        <time>2020-03-14T10:25:28Z</time>
      </trkpt>
      <trkpt lat="45.90105" lon="6.12752">
        <ele>444.75</ele>
        <time>2020-03-14T10:25:29Z</time>
      </trkpt>
      <trkpt lat="45.90111" lon="6.1276">
        <ele>444.27</ele>
        <time>2020-03-14T10:25:30Z</time>
      </trkpt>
      <trkpt lat="45.90118" lon="6.12769">
        <ele>443.31</ele>
        <time>2020-03-14T10:25:31Z</time>
      </trkpt>
      <trkpt lat="45.90122" lon="6.12785">
        <ele>443.31</ele>
        <time>2020-03-14T10:25:32Z</time>
      </trkpt>
      <trkpt lat="45.90125" lon="6.128">
        <ele>443.31</ele>
        <time>2020-03-14T10:25:33Z</time>
      </trkpt>
      <trkpt lat="45.90129" lon="6.12813">
        <ele>442.82</ele>
        <time>2020-03-14T10:25:34Z</time>
      </trkpt>
      <trkpt lat="45.90143" lon="6.12856">
        <ele>442.34</ele>
        <time>2020-03-14T10:25:38Z</time>
      </trkpt>
      <trkpt lat="45.90147" lon="6.12867">
        <ele>442.34</ele>
        <time>2020-03-14T10:25:39Z</time>
      </trkpt>
      <trkpt lat="45.90166" lon="6.12923">
        <ele>441.86</ele>
        <time>2020-03-14T10:25:44Z</time>
      </trkpt>
      <trkpt lat="45.90169" lon="6.12936">
        <ele>441.86</ele>
        <time>2020-03-14T10:25:45Z</time>
      </trkpt>
      <trkpt lat="45.90173" lon="6.1295">
        <ele>441.38</ele>
        <time>2020-03-14T10:25:46Z</time>
      </trkpt>
      <trkpt lat="45.90198" lon="6.13051">
        <ele>440.9</ele>
        <time>2020-03-14T10:25:54Z</time>
      </trkpt>
      <trkpt lat="45.90215" lon="6.13114">
        <ele>436.58</ele>
        <time>2020-03-14T10:26:00Z</time>
      </trkpt>
      <trkpt lat="45.90218" lon="6.13118">
        <ele>436.1</ele>
        <time>2020-03-14T10:26:01Z</time>
      </trkpt>
      <trkpt lat="45.90226" lon="6.13123">
        <ele>435.61</ele>
        <time>2020-03-14T10:26:02Z</time>
      </trkpt>
      <trkpt lat="45.90233" lon="6.13119">
        <ele>436.1</ele>
        <time>2020-03-14T10:26:03Z</time>
      </trkpt>
      <trkpt lat="45.90243" lon="6.13112">
        <ele>436.1</ele>
        <time>2020-03-14T10:26:04Z</time>
      </trkpt>
      <trkpt lat="45.90266" lon="6.13098">
        <ele>435.61</ele>
        <time>2020-03-14T10:26:06Z</time>
      </trkpt>
      <trkpt lat="45.90276" lon="6.13091">
        <ele>435.61</ele>
        <time>2020-03-14T10:26:07Z</time>
      </trkpt>
      <trkpt lat="45.90296" lon="6.13082">
        <ele>436.1</ele>
        <time>2020-03-14T10:26:09Z</time>
      </trkpt>
      <trkpt lat="45.90305" lon="6.13078">
        <ele>436.1</ele>
        <time>2020-03-14T10:26:10Z</time>
      </trkpt>
      <trkpt lat="45.90314" lon="6.13073">
        <ele>436.58</ele>
        <time>2020-03-14T10:26:11Z</time>
      </trkpt>
      <trkpt lat="45.90321" lon="6.1307">
        <ele>437.06</ele>
        <time>2020-03-14T10:26:12Z</time>
      </trkpt>
      <trkpt lat="45.90328" lon="6.13066">
        <ele>438.02</ele>
        <time>2020-03-14T10:26:13Z</time>
      </trkpt>
      <trkpt lat="45.90334" lon="6.13063">
        <ele>438.5</ele>
        <time>2020-03-14T10:26:14Z</time>
      </trkpt>
      <trkpt lat="45.9034" lon="6.1306">
        <ele>438.5</ele>
        <time>2020-03-14T10:26:15Z</time>
      </trkpt>
      <trkpt lat="45.90347" lon="6.13061">
        <ele>438.98</ele>
        <time>2020-03-14T10:26:16Z</time>
      </trkpt>
      <trkpt lat="45.90353" lon="6.13065">
        <ele>439.46</ele>
        <time>2020-03-14T10:26:17Z</time>
      </trkpt>
      <trkpt lat="45.9036" lon="6.13069">
        <ele>439.94</ele>
        <time>2020-03-14T10:26:18Z</time>
      </trkpt>
      <trkpt lat="45.90365" lon="6.13072">
        <ele>440.42</ele>
        <time>2020-03-14T10:26:19Z</time>
      </trkpt>
      <trkpt lat="45.9037" lon="6.13075">
        <ele>440.9</ele>
        <time>2020-03-14T10:26:20Z</time>
      </trkpt>
      <trkpt lat="45.90382" lon="6.13083">
        <ele>441.86</ele>
        <time>2020-03-14T10:26:22Z</time>
      </trkpt>
      <trkpt lat="45.90391" lon="6.13088">
        <ele>442.34</ele>
        <time>2020-03-14T10:26:23Z</time>
      </trkpt>
      <trkpt lat="45.90417" lon="6.13104">
        <ele>443.79</ele>
        <time>2020-03-14T10:26:26Z</time>
      </trkpt>
      <trkpt lat="45.90426" lon="6.13109">
        <ele>443.31</ele>
        <time>2020-03-14T10:26:27Z</time>
      </trkpt>
      <trkpt lat="45.90435" lon="6.13114">
        <ele>443.31</ele>
        <time>2020-03-14T10:26:28Z</time>
      </trkpt>
      <trkpt lat="45.90454" lon="6.13128">
        <ele>442.82</ele>
        <time>2020-03-14T10:26:30Z</time>
      </trkpt>
      <trkpt lat="45.90462" lon="6.13137">
        <ele>442.82</ele>
        <time>2020-03-14T10:26:31Z</time>
      </trkpt>
      <trkpt lat="45.90512" lon="6.13196">
        <ele>441.86</ele>
        <time>2020-03-14T10:26:39Z</time>
      </trkpt>
      <trkpt lat="45.90522" lon="6.13209">
        <ele>440.9</ele>
        <time>2020-03-14T10:26:49Z</time>
      </trkpt>
      <trkpt lat="45.90524" lon="6.13213">
        <ele>440.9</ele>
        <time>2020-03-14T10:26:51Z</time>
      </trkpt>
      <trkpt lat="45.90529" lon="6.1323">
        <ele>440.9</ele>
        <time>2020-03-14T10:26:53Z</time>
      </trkpt>
      <trkpt lat="45.90528" lon="6.13239">
        <ele>440.9</ele>
        <time>2020-03-14T10:26:54Z</time>
      </trkpt>
      <trkpt lat="45.9053" lon="6.13242">
        <ele>441.38</ele>
        <time>2020-03-14T10:26:55Z</time>
      </trkpt>
      <trkpt lat="45.90538" lon="6.13253">
        <ele>441.38</ele>
        <time>2020-03-14T10:26:56Z</time>
      </trkpt>
      <trkpt lat="45.90543" lon="6.1325">
        <ele>441.38</ele>
        <time>2020-03-14T10:26:57Z</time>
      </trkpt>
      <trkpt lat="45.90549" lon="6.13239">
        <ele>441.86</ele>
        <time>2020-03-14T10:26:58Z</time>
      </trkpt>
      <trkpt lat="45.90549" lon="6.13235">
        <ele>441.86</ele>
        <time>2020-03-14T10:26:59Z</time>
      </trkpt>
      <trkpt lat="45.90547" lon="6.13223">
        <ele>442.34</ele>
        <time>2020-03-14T10:27:00Z</time>
      </trkpt>
      <trkpt lat="45.90561" lon="6.13185">
        <ele>441.86</ele>
        <time>2020-03-14T10:27:04Z</time>
      </trkpt>
      <trkpt lat="45.90572" lon="6.13161">
        <ele>441.86</ele>
        <time>2020-03-14T10:27:06Z</time>
      </trkpt>
      <trkpt lat="45.90586" lon="6.1313">
        <ele>441.86</ele>
        <time>2020-03-14T10:27:09Z</time>
      </trkpt>
      <trkpt lat="45.90594" lon="6.13127">
        <ele>442.34</ele>
        <time>2020-03-14T10:27:10Z</time>
      </trkpt>
      <trkpt lat="45.906" lon="6.13124">
        <ele>442.82</ele>
        <time>2020-03-14T10:27:11Z</time>
      </trkpt>
      <trkpt lat="45.90607" lon="6.13122">
        <ele>443.31</ele>
        <time>2020-03-14T10:27:12Z</time>
      </trkpt>
      <trkpt lat="45.90615" lon="6.13119">
        <ele>443.31</ele>
        <time>2020-03-14T10:27:13Z</time>
      </trkpt>
      <trkpt lat="45.90622" lon="6.13115">
        <ele>443.79</ele>
        <time>2020-03-14T10:27:14Z</time>
      </trkpt>
      <trkpt lat="45.90634" lon="6.13113">
        <ele>444.27</ele>
        <time>2020-03-14T10:27:15Z</time>
      </trkpt>
      <trkpt lat="45.90721" lon="6.13117">
        <ele>448.59</ele>
        <time>2020-03-14T10:27:24Z</time>
      </trkpt>
      <trkpt lat="45.90765" lon="6.13117">
        <ele>449.55</ele>
        <time>2020-03-14T10:27:30Z</time>
      </trkpt>
      <trkpt lat="45.90829" lon="6.13115">
        <ele>451</ele>
        <time>2020-03-14T10:27:36Z</time>
      </trkpt>
      <trkpt lat="45.9084" lon="6.13115">
        <ele>451.48</ele>
        <time>2020-03-14T10:27:37Z</time>
      </trkpt>
      <trkpt lat="45.90903" lon="6.13112">
        <ele>451.96</ele>
        <time>2020-03-14T10:27:44Z</time>
      </trkpt>
      <trkpt lat="45.90933" lon="6.13116">
        <ele>452.44</ele>
        <time>2020-03-14T10:27:47Z</time>
      </trkpt>
      <trkpt lat="45.90944" lon="6.13119">
        <ele>452.92</ele>
        <time>2020-03-14T10:27:48Z</time>
      </trkpt>
      <trkpt lat="45.90954" lon="6.1312">
        <ele>453.88</ele>
        <time>2020-03-14T10:27:49Z</time>
      </trkpt>
      <trkpt lat="45.90965" lon="6.13123">
        <ele>455.32</ele>
        <time>2020-03-14T10:27:50Z</time>
      </trkpt>
      <trkpt lat="45.90976" lon="6.13125">
        <ele>456.76</ele>
        <time>2020-03-14T10:27:51Z</time>
      </trkpt>
      <trkpt lat="45.90988" lon="6.13127">
        <ele>457.72</ele>
        <time>2020-03-14T10:27:52Z</time>
      </trkpt>
      <trkpt lat="45.911" lon="6.13147">
        <ele>460.61</ele>
        <time>2020-03-14T10:28:02Z</time>
      </trkpt>
      <trkpt lat="45.91152" lon="6.13156">
        <ele>459.65</ele>
        <time>2020-03-14T10:28:07Z</time>
      </trkpt>
      <trkpt lat="45.91159" lon="6.13158">
        <ele>459.17</ele>
        <time>2020-03-14T10:28:08Z</time>
      </trkpt>
      <trkpt lat="45.91169" lon="6.13181">
        <ele>459.17</ele>
        <time>2020-03-14T10:28:09Z</time>
      </trkpt>
      <trkpt lat="45.91175" lon="6.13185">
        <ele>458.69</ele>
        <time>2020-03-14T10:28:11Z</time>
      </trkpt>
      <trkpt lat="45.91182" lon="6.1319">
        <ele>458.69</ele>
        <time>2020-03-14T10:28:12Z</time>
      </trkpt>
      <trkpt lat="45.91188" lon="6.13189">
        <ele>458.69</ele>
        <time>2020-03-14T10:28:13Z</time>
      </trkpt>
      <trkpt lat="45.91194" lon="6.13184">
        <ele>458.69</ele>
        <time>2020-03-14T10:28:14Z</time>
      </trkpt>
      <trkpt lat="45.91195" lon="6.13183">
        <ele>459.17</ele>
        <time>2020-03-14T10:28:15Z</time>
      </trkpt>
      <trkpt lat="45.912" lon="6.13156">
        <ele>459.17</ele>
        <time>2020-03-14T10:28:16Z</time>
      </trkpt>
      <trkpt lat="45.91207" lon="6.1315">
        <ele>459.17</ele>
        <time>2020-03-14T10:28:17Z</time>
      </trkpt>
      <trkpt lat="45.91216" lon="6.13143">
        <ele>459.17</ele>
        <time>2020-03-14T10:28:18Z</time>
      </trkpt>
      <trkpt lat="45.91227" lon="6.13135">
        <ele>459.65</ele>
        <time>2020-03-14T10:28:19Z</time>
      </trkpt>
      <trkpt lat="45.91237" lon="6.13128">
        <ele>459.17</ele>
        <time>2020-03-14T10:28:20Z</time>
      </trkpt>
      <trkpt lat="45.91324" lon="6.1307">
        <ele>459.65</ele>
        <time>2020-03-14T10:28:29Z</time>
      </trkpt>
      <trkpt lat="45.91333" lon="6.13065">
        <ele>459.65</ele>
        <time>2020-03-14T10:28:30Z</time>
      </trkpt>
      <trkpt lat="45.91342" lon="6.13058">
        <ele>460.13</ele>
        <time>2020-03-14T10:28:31Z</time>
      </trkpt>
      <trkpt lat="45.91351" lon="6.13051">
        <ele>460.13</ele>
        <time>2020-03-14T10:28:32Z</time>
      </trkpt>
      <trkpt lat="45.9136" lon="6.13044">
        <ele>460.13</ele>
        <time>2020-03-14T10:28:33Z</time>
      </trkpt>
      <trkpt lat="45.91368" lon="6.13039">
        <ele>460.13</ele>
        <time>2020-03-14T10:28:34Z</time>
      </trkpt>
      <trkpt lat="45.91377" lon="6.13034">
        <ele>460.13</ele>
        <time>2020-03-14T10:28:35Z</time>
      </trkpt>
      <trkpt lat="45.91386" lon="6.13029">
        <ele>460.13</ele>
        <time>2020-03-14T10:28:36Z</time>
      </trkpt>
      <trkpt lat="45.9143" lon="6.12998">
        <ele>461.09</ele>
        <time>2020-03-14T10:28:44Z</time>
      </trkpt>
      <trkpt lat="45.91452" lon="6.12983">
        <ele>461.57</ele>
        <time>2020-03-14T10:28:57Z</time>
      </trkpt>
      <trkpt lat="45.91479" lon="6.12965">
        <ele>463.49</ele>
        <time>2020-03-14T10:29:11Z</time>
      </trkpt>
      <trkpt lat="45.915" lon="6.12951">
        <ele>463.01</ele>
        <time>2020-03-14T10:29:25Z</time>
      </trkpt>
      <trkpt lat="45.91501" lon="6.1295">
        <ele>463.49</ele>
        <time>2020-03-14T10:29:26Z</time>
      </trkpt>
    </trkseg>
  </trk>
</gpx>